<?xml version="1.0" encoding="UTF-8" standalone="no" ?>
<gpx xmlns="http://www.topografix.com/GPX/1/1" xmlns:xsi="http://www.w3.org/2001/XMLSchema-instance" xsi:schemaLocation="http://www.topografix.com/GPX/1/1 http://www.topografix.com/GPX/1/1/gpx.xsd" version="1.1" creator="VisuGPX - https://www.visugpx.com">
  <metadata>
    <name>Bonnet de Cherel</name>
    <desc><![CDATA[Bonnet de Chérel en boucle sud-nord.]]></desc>
  </metadata>
  <trk>
    <name><![CDATA[Bonnet de Cherel]]></name>
    <trkseg>
      <trkpt lat="45.66489" lon="6.19165">
        <ele>1162.7</ele>
        <time>2014-01-31T08:06:53Z</time>
      </trkpt>
      <trkpt lat="45.66489" lon="6.19165">
        <ele>1162.2</ele>
        <time>2014-01-31T08:06:54Z</time>
      </trkpt>
      <trkpt lat="45.6649" lon="6.19168">
        <ele>1162.1</ele>
        <time>2014-01-31T08:07:09Z</time>
      </trkpt>
      <trkpt lat="45.66496" lon="6.19161">
        <ele>1161.2</ele>
        <time>2014-01-31T08:07:24Z</time>
      </trkpt>
      <trkpt lat="45.66494" lon="6.19165">
        <ele>1161.3</ele>
        <time>2014-01-31T08:07:39Z</time>
      </trkpt>
      <trkpt lat="45.6649" lon="6.19167">
        <ele>1161.7</ele>
        <time>2014-01-31T08:07:54Z</time>
      </trkpt>
      <trkpt lat="45.66487" lon="6.19168">
        <ele>1161.7</ele>
        <time>2014-01-31T08:08:09Z</time>
      </trkpt>
      <trkpt lat="45.66486" lon="6.19169">
        <ele>1161.2</ele>
        <time>2014-01-31T08:08:24Z</time>
      </trkpt>
      <trkpt lat="45.66485" lon="6.19169">
        <ele>1162.5</ele>
        <time>2014-01-31T08:08:39Z</time>
      </trkpt>
      <trkpt lat="45.66485" lon="6.19171">
        <ele>1161.2</ele>
        <time>2014-01-31T08:08:54Z</time>
      </trkpt>
      <trkpt lat="45.66488" lon="6.1917">
        <ele>1160.9</ele>
        <time>2014-01-31T08:09:09Z</time>
      </trkpt>
      <trkpt lat="45.66492" lon="6.19168">
        <ele>1162</ele>
        <time>2014-01-31T08:09:24Z</time>
      </trkpt>
      <trkpt lat="45.66492" lon="6.19168">
        <ele>1160.4</ele>
        <time>2014-01-31T08:09:39Z</time>
      </trkpt>
      <trkpt lat="45.66488" lon="6.19169">
        <ele>1160.9</ele>
        <time>2014-01-31T08:09:54Z</time>
      </trkpt>
      <trkpt lat="45.66484" lon="6.1917">
        <ele>1160.3</ele>
        <time>2014-01-31T08:10:09Z</time>
      </trkpt>
      <trkpt lat="45.66485" lon="6.19169">
        <ele>1160.9</ele>
        <time>2014-01-31T08:10:24Z</time>
      </trkpt>
      <trkpt lat="45.66486" lon="6.19169">
        <ele>1160.1</ele>
        <time>2014-01-31T08:10:39Z</time>
      </trkpt>
      <trkpt lat="45.66487" lon="6.1917">
        <ele>1160.4</ele>
        <time>2014-01-31T08:10:54Z</time>
      </trkpt>
      <trkpt lat="45.66489" lon="6.1917">
        <ele>1160.8</ele>
        <time>2014-01-31T08:11:09Z</time>
      </trkpt>
      <trkpt lat="45.66491" lon="6.1917">
        <ele>1160.6</ele>
        <time>2014-01-31T08:11:24Z</time>
      </trkpt>
      <trkpt lat="45.66492" lon="6.1917">
        <ele>1160.2</ele>
        <time>2014-01-31T08:11:39Z</time>
      </trkpt>
      <trkpt lat="45.66493" lon="6.1917">
        <ele>1159.9</ele>
        <time>2014-01-31T08:11:54Z</time>
      </trkpt>
      <trkpt lat="45.66493" lon="6.19171">
        <ele>1160</ele>
        <time>2014-01-31T08:12:09Z</time>
      </trkpt>
      <trkpt lat="45.66493" lon="6.19171">
        <ele>1160.9</ele>
        <time>2014-01-31T08:12:24Z</time>
      </trkpt>
      <trkpt lat="45.66495" lon="6.1917">
        <ele>1160.5</ele>
        <time>2014-01-31T08:12:39Z</time>
      </trkpt>
      <trkpt lat="45.66499" lon="6.19166">
        <ele>1161.1</ele>
        <time>2014-01-31T08:12:54Z</time>
      </trkpt>
      <trkpt lat="45.665" lon="6.19165">
        <ele>1160.7</ele>
        <time>2014-01-31T08:13:09Z</time>
      </trkpt>
      <trkpt lat="45.66499" lon="6.1917">
        <ele>1161.3</ele>
        <time>2014-01-31T08:13:24Z</time>
      </trkpt>
      <trkpt lat="45.66495" lon="6.1917">
        <ele>1161.4</ele>
        <time>2014-01-31T08:13:39Z</time>
      </trkpt>
      <trkpt lat="45.66492" lon="6.19191">
        <ele>1160.2</ele>
        <time>2014-01-31T08:13:56Z</time>
      </trkpt>
      <trkpt lat="45.66492" lon="6.19178">
        <ele>1157</ele>
        <time>2014-01-31T08:14:11Z</time>
      </trkpt>
      <trkpt lat="45.66505" lon="6.19164">
        <ele>1161</ele>
        <time>2014-01-31T08:14:29Z</time>
      </trkpt>
      <trkpt lat="45.66531" lon="6.19239">
        <ele>1161</ele>
        <time>2014-01-31T08:14:48Z</time>
      </trkpt>
      <trkpt lat="45.66497" lon="6.19175">
        <ele>1160.5</ele>
        <time>2014-01-31T08:15:07Z</time>
      </trkpt>
      <trkpt lat="45.66493" lon="6.19167">
        <ele>1160.3</ele>
        <time>2014-01-31T08:15:37Z</time>
      </trkpt>
      <trkpt lat="45.6649" lon="6.19168">
        <ele>1160.9</ele>
        <time>2014-01-31T08:15:52Z</time>
      </trkpt>
      <trkpt lat="45.66489" lon="6.19165">
        <ele>1160.4</ele>
        <time>2014-01-31T08:16:07Z</time>
      </trkpt>
      <trkpt lat="45.66488" lon="6.19165">
        <ele>1160.6</ele>
        <time>2014-01-31T08:16:22Z</time>
      </trkpt>
      <trkpt lat="45.66487" lon="6.19167">
        <ele>1161.2</ele>
        <time>2014-01-31T08:16:52Z</time>
      </trkpt>
      <trkpt lat="45.66485" lon="6.19169">
        <ele>1160.4</ele>
        <time>2014-01-31T08:17:07Z</time>
      </trkpt>
      <trkpt lat="45.66486" lon="6.19169">
        <ele>1160.4</ele>
        <time>2014-01-31T08:17:22Z</time>
      </trkpt>
      <trkpt lat="45.66487" lon="6.19168">
        <ele>1160.5</ele>
        <time>2014-01-31T08:17:37Z</time>
      </trkpt>
      <trkpt lat="45.6649" lon="6.19168">
        <ele>1160.1</ele>
        <time>2014-01-31T08:18:07Z</time>
      </trkpt>
      <trkpt lat="45.66496" lon="6.19157">
        <ele>1161</ele>
        <time>2014-01-31T08:18:22Z</time>
      </trkpt>
      <trkpt lat="45.66502" lon="6.19152">
        <ele>1159.1</ele>
        <time>2014-01-31T08:18:37Z</time>
      </trkpt>
      <trkpt lat="45.66499" lon="6.19151">
        <ele>1158.9</ele>
        <time>2014-01-31T08:18:52Z</time>
      </trkpt>
      <trkpt lat="45.66501" lon="6.19154">
        <ele>1159.4</ele>
        <time>2014-01-31T08:19:22Z</time>
      </trkpt>
      <trkpt lat="45.66505" lon="6.19159">
        <ele>1159.2</ele>
        <time>2014-01-31T08:19:37Z</time>
      </trkpt>
      <trkpt lat="45.66515" lon="6.19173">
        <ele>1159.1</ele>
        <time>2014-01-31T08:19:52Z</time>
      </trkpt>
      <trkpt lat="45.66519" lon="6.19175">
        <ele>1159.8</ele>
        <time>2014-01-31T08:20:07Z</time>
      </trkpt>
      <trkpt lat="45.66516" lon="6.19174">
        <ele>1158.2</ele>
        <time>2014-01-31T08:20:37Z</time>
      </trkpt>
      <trkpt lat="45.66515" lon="6.19176">
        <ele>1157.6</ele>
        <time>2014-01-31T08:20:52Z</time>
      </trkpt>
      <trkpt lat="45.66516" lon="6.19176">
        <ele>1158.2</ele>
        <time>2014-01-31T08:21:07Z</time>
      </trkpt>
      <trkpt lat="45.66515" lon="6.19177">
        <ele>1158.4</ele>
        <time>2014-01-31T08:21:22Z</time>
      </trkpt>
      <trkpt lat="45.66515" lon="6.19176">
        <ele>1158.5</ele>
        <time>2014-01-31T08:21:52Z</time>
      </trkpt>
      <trkpt lat="45.66514" lon="6.19171">
        <ele>1158.6</ele>
        <time>2014-01-31T08:22:07Z</time>
      </trkpt>
      <trkpt lat="45.66514" lon="6.19171">
        <ele>1159</ele>
        <time>2014-01-31T08:22:22Z</time>
      </trkpt>
      <trkpt lat="45.66512" lon="6.19171">
        <ele>1158.2</ele>
        <time>2014-01-31T08:22:37Z</time>
      </trkpt>
      <trkpt lat="45.66518" lon="6.19171">
        <ele>1157.5</ele>
        <time>2014-01-31T08:23:07Z</time>
      </trkpt>
      <trkpt lat="45.66518" lon="6.19174">
        <ele>1157.9</ele>
        <time>2014-01-31T08:23:22Z</time>
      </trkpt>
      <trkpt lat="45.66516" lon="6.19176">
        <ele>1156.9</ele>
        <time>2014-01-31T08:23:39Z</time>
      </trkpt>
      <trkpt lat="45.66529" lon="6.19188">
        <ele>1156.8</ele>
        <time>2014-01-31T08:24:09Z</time>
      </trkpt>
      <trkpt lat="45.6653" lon="6.19191">
        <ele>1157.5</ele>
        <time>2014-01-31T08:24:24Z</time>
      </trkpt>
      <trkpt lat="45.66539" lon="6.19202">
        <ele>1157.3</ele>
        <time>2014-01-31T08:24:39Z</time>
      </trkpt>
      <trkpt lat="45.66551" lon="6.19219">
        <ele>1157.7</ele>
        <time>2014-01-31T08:24:54Z</time>
      </trkpt>
      <trkpt lat="45.66583" lon="6.19245">
        <ele>1159.8</ele>
        <time>2014-01-31T08:25:24Z</time>
      </trkpt>
      <trkpt lat="45.66588" lon="6.19261">
        <ele>1159.3</ele>
        <time>2014-01-31T08:25:39Z</time>
      </trkpt>
      <trkpt lat="45.66595" lon="6.19274">
        <ele>1158.7</ele>
        <time>2014-01-31T08:25:54Z</time>
      </trkpt>
      <trkpt lat="45.66605" lon="6.19285">
        <ele>1160.2</ele>
        <time>2014-01-31T08:26:09Z</time>
      </trkpt>
      <trkpt lat="45.66627" lon="6.19306">
        <ele>1162.2</ele>
        <time>2014-01-31T08:26:39Z</time>
      </trkpt>
      <trkpt lat="45.66639" lon="6.19315">
        <ele>1163.4</ele>
        <time>2014-01-31T08:26:54Z</time>
      </trkpt>
      <trkpt lat="45.66652" lon="6.19326">
        <ele>1164.4</ele>
        <time>2014-01-31T08:27:09Z</time>
      </trkpt>
      <trkpt lat="45.66665" lon="6.19337">
        <ele>1164.4</ele>
        <time>2014-01-31T08:27:24Z</time>
      </trkpt>
      <trkpt lat="45.66688" lon="6.19366">
        <ele>1164.6</ele>
        <time>2014-01-31T08:27:54Z</time>
      </trkpt>
      <trkpt lat="45.667" lon="6.1938">
        <ele>1164.7</ele>
        <time>2014-01-31T08:28:09Z</time>
      </trkpt>
      <trkpt lat="45.66713" lon="6.1939">
        <ele>1163.5</ele>
        <time>2014-01-31T08:28:24Z</time>
      </trkpt>
      <trkpt lat="45.66724" lon="6.19402">
        <ele>1164.1</ele>
        <time>2014-01-31T08:28:39Z</time>
      </trkpt>
      <trkpt lat="45.66747" lon="6.19423">
        <ele>1163.9</ele>
        <time>2014-01-31T08:29:09Z</time>
      </trkpt>
      <trkpt lat="45.66761" lon="6.19444">
        <ele>1162.6</ele>
        <time>2014-01-31T08:29:24Z</time>
      </trkpt>
      <trkpt lat="45.6677" lon="6.19461">
        <ele>1165</ele>
        <time>2014-01-31T08:29:39Z</time>
      </trkpt>
      <trkpt lat="45.66785" lon="6.19468">
        <ele>1165.4</ele>
        <time>2014-01-31T08:29:54Z</time>
      </trkpt>
      <trkpt lat="45.66809" lon="6.1949">
        <ele>1166.5</ele>
        <time>2014-01-31T08:30:24Z</time>
      </trkpt>
      <trkpt lat="45.66817" lon="6.19501">
        <ele>1168.5</ele>
        <time>2014-01-31T08:30:39Z</time>
      </trkpt>
      <trkpt lat="45.66829" lon="6.19506">
        <ele>1169.3</ele>
        <time>2014-01-31T08:30:54Z</time>
      </trkpt>
      <trkpt lat="45.66838" lon="6.19515">
        <ele>1170.5</ele>
        <time>2014-01-31T08:31:09Z</time>
      </trkpt>
      <trkpt lat="45.66862" lon="6.19526">
        <ele>1173.6</ele>
        <time>2014-01-31T08:31:39Z</time>
      </trkpt>
      <trkpt lat="45.66875" lon="6.19534">
        <ele>1175</ele>
        <time>2014-01-31T08:31:54Z</time>
      </trkpt>
      <trkpt lat="45.66886" lon="6.19543">
        <ele>1175.8</ele>
        <time>2014-01-31T08:32:09Z</time>
      </trkpt>
      <trkpt lat="45.66897" lon="6.19551">
        <ele>1177.4</ele>
        <time>2014-01-31T08:32:24Z</time>
      </trkpt>
      <trkpt lat="45.66917" lon="6.19572">
        <ele>1179.9</ele>
        <time>2014-01-31T08:32:54Z</time>
      </trkpt>
      <trkpt lat="45.66931" lon="6.19576">
        <ele>1180.9</ele>
        <time>2014-01-31T08:33:09Z</time>
      </trkpt>
      <trkpt lat="45.66943" lon="6.19584">
        <ele>1182.6</ele>
        <time>2014-01-31T08:33:24Z</time>
      </trkpt>
      <trkpt lat="45.66952" lon="6.19596">
        <ele>1183.2</ele>
        <time>2014-01-31T08:33:39Z</time>
      </trkpt>
      <trkpt lat="45.66966" lon="6.19614">
        <ele>1184.7</ele>
        <time>2014-01-31T08:34:09Z</time>
      </trkpt>
      <trkpt lat="45.66975" lon="6.19625">
        <ele>1186.1</ele>
        <time>2014-01-31T08:34:24Z</time>
      </trkpt>
      <trkpt lat="45.66983" lon="6.19635">
        <ele>1187.6</ele>
        <time>2014-01-31T08:34:39Z</time>
      </trkpt>
      <trkpt lat="45.66991" lon="6.19642">
        <ele>1189.3</ele>
        <time>2014-01-31T08:34:54Z</time>
      </trkpt>
      <trkpt lat="45.67011" lon="6.19657">
        <ele>1191.5</ele>
        <time>2014-01-31T08:35:24Z</time>
      </trkpt>
      <trkpt lat="45.6702" lon="6.19669">
        <ele>1193.3</ele>
        <time>2014-01-31T08:35:39Z</time>
      </trkpt>
      <trkpt lat="45.67031" lon="6.19677">
        <ele>1195.2</ele>
        <time>2014-01-31T08:35:54Z</time>
      </trkpt>
      <trkpt lat="45.67041" lon="6.19688">
        <ele>1196.5</ele>
        <time>2014-01-31T08:36:09Z</time>
      </trkpt>
      <trkpt lat="45.67056" lon="6.19715">
        <ele>1199.8</ele>
        <time>2014-01-31T08:36:39Z</time>
      </trkpt>
      <trkpt lat="45.67065" lon="6.1972">
        <ele>1200.9</ele>
        <time>2014-01-31T08:36:54Z</time>
      </trkpt>
      <trkpt lat="45.67072" lon="6.19732">
        <ele>1201.4</ele>
        <time>2014-01-31T08:37:09Z</time>
      </trkpt>
      <trkpt lat="45.67082" lon="6.19743">
        <ele>1203.4</ele>
        <time>2014-01-31T08:37:24Z</time>
      </trkpt>
      <trkpt lat="45.67097" lon="6.19768">
        <ele>1206.3</ele>
        <time>2014-01-31T08:37:54Z</time>
      </trkpt>
      <trkpt lat="45.67109" lon="6.19775">
        <ele>1208.1</ele>
        <time>2014-01-31T08:38:09Z</time>
      </trkpt>
      <trkpt lat="45.67117" lon="6.19788">
        <ele>1209.5</ele>
        <time>2014-01-31T08:38:24Z</time>
      </trkpt>
      <trkpt lat="45.67124" lon="6.19801">
        <ele>1210.4</ele>
        <time>2014-01-31T08:38:39Z</time>
      </trkpt>
      <trkpt lat="45.67145" lon="6.19815">
        <ele>1212.9</ele>
        <time>2014-01-31T08:39:09Z</time>
      </trkpt>
      <trkpt lat="45.67156" lon="6.1982">
        <ele>1213.9</ele>
        <time>2014-01-31T08:39:24Z</time>
      </trkpt>
      <trkpt lat="45.67166" lon="6.19827">
        <ele>1217.2</ele>
        <time>2014-01-31T08:39:39Z</time>
      </trkpt>
      <trkpt lat="45.67176" lon="6.19836">
        <ele>1218.1</ele>
        <time>2014-01-31T08:39:54Z</time>
      </trkpt>
      <trkpt lat="45.67197" lon="6.19858">
        <ele>1220.8</ele>
        <time>2014-01-31T08:40:24Z</time>
      </trkpt>
      <trkpt lat="45.67209" lon="6.19872">
        <ele>1221.8</ele>
        <time>2014-01-31T08:40:39Z</time>
      </trkpt>
      <trkpt lat="45.67223" lon="6.19879">
        <ele>1223.5</ele>
        <time>2014-01-31T08:40:54Z</time>
      </trkpt>
      <trkpt lat="45.67235" lon="6.19887">
        <ele>1224</ele>
        <time>2014-01-31T08:41:09Z</time>
      </trkpt>
      <trkpt lat="45.67257" lon="6.19909">
        <ele>1226.1</ele>
        <time>2014-01-31T08:41:39Z</time>
      </trkpt>
      <trkpt lat="45.67274" lon="6.19916">
        <ele>1225.4</ele>
        <time>2014-01-31T08:41:54Z</time>
      </trkpt>
      <trkpt lat="45.67285" lon="6.19933">
        <ele>1225.2</ele>
        <time>2014-01-31T08:42:09Z</time>
      </trkpt>
      <trkpt lat="45.67294" lon="6.19951">
        <ele>1226</ele>
        <time>2014-01-31T08:42:24Z</time>
      </trkpt>
      <trkpt lat="45.67313" lon="6.19984">
        <ele>1226.8</ele>
        <time>2014-01-31T08:42:54Z</time>
      </trkpt>
      <trkpt lat="45.67324" lon="6.20003">
        <ele>1225.9</ele>
        <time>2014-01-31T08:43:09Z</time>
      </trkpt>
      <trkpt lat="45.67338" lon="6.20015">
        <ele>1227.3</ele>
        <time>2014-01-31T08:43:24Z</time>
      </trkpt>
      <trkpt lat="45.67349" lon="6.20012">
        <ele>1228.4</ele>
        <time>2014-01-31T08:43:39Z</time>
      </trkpt>
      <trkpt lat="45.67355" lon="6.20016">
        <ele>1230</ele>
        <time>2014-01-31T08:44:09Z</time>
      </trkpt>
      <trkpt lat="45.67351" lon="6.20017">
        <ele>1229.6</ele>
        <time>2014-01-31T08:44:24Z</time>
      </trkpt>
      <trkpt lat="45.67351" lon="6.2002">
        <ele>1230</ele>
        <time>2014-01-31T08:44:39Z</time>
      </trkpt>
      <trkpt lat="45.67353" lon="6.20019">
        <ele>1228.5</ele>
        <time>2014-01-31T08:44:54Z</time>
      </trkpt>
      <trkpt lat="45.67356" lon="6.20026">
        <ele>1228.9</ele>
        <time>2014-01-31T08:45:24Z</time>
      </trkpt>
      <trkpt lat="45.67357" lon="6.2003">
        <ele>1229.3</ele>
        <time>2014-01-31T08:45:39Z</time>
      </trkpt>
      <trkpt lat="45.67357" lon="6.20031">
        <ele>1229.7</ele>
        <time>2014-01-31T08:45:54Z</time>
      </trkpt>
      <trkpt lat="45.67359" lon="6.20036">
        <ele>1228</ele>
        <time>2014-01-31T08:46:09Z</time>
      </trkpt>
      <trkpt lat="45.67355" lon="6.20021">
        <ele>1229</ele>
        <time>2014-01-31T08:46:39Z</time>
      </trkpt>
      <trkpt lat="45.67354" lon="6.20013">
        <ele>1229.4</ele>
        <time>2014-01-31T08:46:54Z</time>
      </trkpt>
      <trkpt lat="45.67356" lon="6.20008">
        <ele>1229</ele>
        <time>2014-01-31T08:47:09Z</time>
      </trkpt>
      <trkpt lat="45.67357" lon="6.20007">
        <ele>1229.4</ele>
        <time>2014-01-31T08:47:24Z</time>
      </trkpt>
      <trkpt lat="45.67365" lon="6.20024">
        <ele>1230.5</ele>
        <time>2014-01-31T08:47:54Z</time>
      </trkpt>
      <trkpt lat="45.67369" lon="6.20037">
        <ele>1233</ele>
        <time>2014-01-31T08:48:09Z</time>
      </trkpt>
      <trkpt lat="45.67377" lon="6.20049">
        <ele>1235.7</ele>
        <time>2014-01-31T08:48:24Z</time>
      </trkpt>
      <trkpt lat="45.67384" lon="6.20055">
        <ele>1236</ele>
        <time>2014-01-31T08:48:39Z</time>
      </trkpt>
      <trkpt lat="45.6739" lon="6.20091">
        <ele>1240</ele>
        <time>2014-01-31T08:49:11Z</time>
      </trkpt>
      <trkpt lat="45.67393" lon="6.20102">
        <ele>1243</ele>
        <time>2014-01-31T08:49:27Z</time>
      </trkpt>
      <trkpt lat="45.67399" lon="6.20116">
        <ele>1245</ele>
        <time>2014-01-31T08:49:43Z</time>
      </trkpt>
      <trkpt lat="45.67401" lon="6.20148">
        <ele>1248</ele>
        <time>2014-01-31T08:50:15Z</time>
      </trkpt>
      <trkpt lat="45.67406" lon="6.20163">
        <ele>1251</ele>
        <time>2014-01-31T08:50:31Z</time>
      </trkpt>
      <trkpt lat="45.67409" lon="6.20176">
        <ele>1252</ele>
        <time>2014-01-31T08:50:47Z</time>
      </trkpt>
      <trkpt lat="45.67415" lon="6.20201">
        <ele>1258</ele>
        <time>2014-01-31T08:51:19Z</time>
      </trkpt>
      <trkpt lat="45.6742" lon="6.20223">
        <ele>1261</ele>
        <time>2014-01-31T08:51:35Z</time>
      </trkpt>
      <trkpt lat="45.67423" lon="6.20234">
        <ele>1262</ele>
        <time>2014-01-31T08:51:51Z</time>
      </trkpt>
      <trkpt lat="45.6742" lon="6.20259">
        <ele>1267</ele>
        <time>2014-01-31T08:52:23Z</time>
      </trkpt>
      <trkpt lat="45.67419" lon="6.20272">
        <ele>1269</ele>
        <time>2014-01-31T08:52:39Z</time>
      </trkpt>
      <trkpt lat="45.67414" lon="6.20289">
        <ele>1271</ele>
        <time>2014-01-31T08:52:55Z</time>
      </trkpt>
      <trkpt lat="45.67419" lon="6.2032">
        <ele>1276</ele>
        <time>2014-01-31T08:53:27Z</time>
      </trkpt>
      <trkpt lat="45.67423" lon="6.20337">
        <ele>1279</ele>
        <time>2014-01-31T08:53:43Z</time>
      </trkpt>
      <trkpt lat="45.67434" lon="6.20348">
        <ele>1281</ele>
        <time>2014-01-31T08:53:59Z</time>
      </trkpt>
      <trkpt lat="45.67452" lon="6.20333">
        <ele>1286</ele>
        <time>2014-01-31T08:54:31Z</time>
      </trkpt>
      <trkpt lat="45.67458" lon="6.20324">
        <ele>1289</ele>
        <time>2014-01-31T08:54:47Z</time>
      </trkpt>
      <trkpt lat="45.67462" lon="6.20315">
        <ele>1292</ele>
        <time>2014-01-31T08:55:03Z</time>
      </trkpt>
      <trkpt lat="45.67463" lon="6.20289">
        <ele>1296</ele>
        <time>2014-01-31T08:55:35Z</time>
      </trkpt>
      <trkpt lat="45.67475" lon="6.20285">
        <ele>1300</ele>
        <time>2014-01-31T08:55:51Z</time>
      </trkpt>
      <trkpt lat="45.67485" lon="6.20275">
        <ele>1301</ele>
        <time>2014-01-31T08:56:07Z</time>
      </trkpt>
      <trkpt lat="45.67494" lon="6.20265">
        <ele>1305</ele>
        <time>2014-01-31T08:56:39Z</time>
      </trkpt>
      <trkpt lat="45.675" lon="6.20254">
        <ele>1307</ele>
        <time>2014-01-31T08:56:55Z</time>
      </trkpt>
      <trkpt lat="45.67514" lon="6.20255">
        <ele>1309</ele>
        <time>2014-01-31T08:57:11Z</time>
      </trkpt>
      <trkpt lat="45.67547" lon="6.20273">
        <ele>1311</ele>
        <time>2014-01-31T08:57:43Z</time>
      </trkpt>
      <trkpt lat="45.67552" lon="6.20279">
        <ele>1314</ele>
        <time>2014-01-31T08:57:59Z</time>
      </trkpt>
      <trkpt lat="45.67551" lon="6.20291">
        <ele>1317</ele>
        <time>2014-01-31T08:58:15Z</time>
      </trkpt>
      <trkpt lat="45.67554" lon="6.20318">
        <ele>1323</ele>
        <time>2014-01-31T08:58:47Z</time>
      </trkpt>
      <trkpt lat="45.67557" lon="6.2033">
        <ele>1325</ele>
        <time>2014-01-31T08:59:03Z</time>
      </trkpt>
      <trkpt lat="45.67558" lon="6.20338">
        <ele>1328</ele>
        <time>2014-01-31T08:59:19Z</time>
      </trkpt>
      <trkpt lat="45.67565" lon="6.20357">
        <ele>1332</ele>
        <time>2014-01-31T08:59:51Z</time>
      </trkpt>
      <trkpt lat="45.6757" lon="6.20356">
        <ele>1335</ele>
        <time>2014-01-31T09:00:07Z</time>
      </trkpt>
      <trkpt lat="45.67582" lon="6.20359">
        <ele>1338</ele>
        <time>2014-01-31T09:00:23Z</time>
      </trkpt>
      <trkpt lat="45.67588" lon="6.20382">
        <ele>1342</ele>
        <time>2014-01-31T09:00:55Z</time>
      </trkpt>
      <trkpt lat="45.6759" lon="6.20391">
        <ele>1345</ele>
        <time>2014-01-31T09:01:11Z</time>
      </trkpt>
      <trkpt lat="45.67592" lon="6.2039">
        <ele>1346</ele>
        <time>2014-01-31T09:01:27Z</time>
      </trkpt>
      <trkpt lat="45.67582" lon="6.20391">
        <ele>1346</ele>
        <time>2014-01-31T09:01:59Z</time>
      </trkpt>
      <trkpt lat="45.67597" lon="6.20396">
        <ele>1348</ele>
        <time>2014-01-31T09:02:15Z</time>
      </trkpt>
      <trkpt lat="45.67615" lon="6.20401">
        <ele>1350</ele>
        <time>2014-01-31T09:02:31Z</time>
      </trkpt>
      <trkpt lat="45.67641" lon="6.2041">
        <ele>1354</ele>
        <time>2014-01-31T09:03:03Z</time>
      </trkpt>
      <trkpt lat="45.67649" lon="6.20418">
        <ele>1356</ele>
        <time>2014-01-31T09:03:20Z</time>
      </trkpt>
      <trkpt lat="45.67656" lon="6.20425">
        <ele>1360</ele>
        <time>2014-01-31T09:03:36Z</time>
      </trkpt>
      <trkpt lat="45.67674" lon="6.20439">
        <ele>1365</ele>
        <time>2014-01-31T09:04:08Z</time>
      </trkpt>
      <trkpt lat="45.67678" lon="6.20446">
        <ele>1366</ele>
        <time>2014-01-31T09:04:24Z</time>
      </trkpt>
      <trkpt lat="45.67688" lon="6.20451">
        <ele>1369</ele>
        <time>2014-01-31T09:04:40Z</time>
      </trkpt>
      <trkpt lat="45.67712" lon="6.20464">
        <ele>1372</ele>
        <time>2014-01-31T09:05:12Z</time>
      </trkpt>
      <trkpt lat="45.67715" lon="6.2048">
        <ele>1375</ele>
        <time>2014-01-31T09:05:28Z</time>
      </trkpt>
      <trkpt lat="45.67721" lon="6.20484">
        <ele>1375</ele>
        <time>2014-01-31T09:05:44Z</time>
      </trkpt>
      <trkpt lat="45.67743" lon="6.20473">
        <ele>1377</ele>
        <time>2014-01-31T09:06:16Z</time>
      </trkpt>
      <trkpt lat="45.67751" lon="6.20458">
        <ele>1379</ele>
        <time>2014-01-31T09:06:32Z</time>
      </trkpt>
      <trkpt lat="45.67757" lon="6.20446">
        <ele>1382</ele>
        <time>2014-01-31T09:06:48Z</time>
      </trkpt>
      <trkpt lat="45.67776" lon="6.2045">
        <ele>1386</ele>
        <time>2014-01-31T09:07:20Z</time>
      </trkpt>
      <trkpt lat="45.67784" lon="6.20461">
        <ele>1389</ele>
        <time>2014-01-31T09:07:36Z</time>
      </trkpt>
      <trkpt lat="45.67781" lon="6.20468">
        <ele>1391</ele>
        <time>2014-01-31T09:07:52Z</time>
      </trkpt>
      <trkpt lat="45.67775" lon="6.20484">
        <ele>1396.8</ele>
        <time>2014-01-31T09:08:22Z</time>
      </trkpt>
      <trkpt lat="45.67772" lon="6.20497">
        <ele>1398.4</ele>
        <time>2014-01-31T09:08:37Z</time>
      </trkpt>
      <trkpt lat="45.67774" lon="6.20506">
        <ele>1401.5</ele>
        <time>2014-01-31T09:08:52Z</time>
      </trkpt>
      <trkpt lat="45.67779" lon="6.20519">
        <ele>1402</ele>
        <time>2014-01-31T09:09:10Z</time>
      </trkpt>
      <trkpt lat="45.67805" lon="6.2053">
        <ele>1407</ele>
        <time>2014-01-31T09:09:42Z</time>
      </trkpt>
      <trkpt lat="45.67808" lon="6.20524">
        <ele>1409</ele>
        <time>2014-01-31T09:09:58Z</time>
      </trkpt>
      <trkpt lat="45.67811" lon="6.20513">
        <ele>1412</ele>
        <time>2014-01-31T09:10:14Z</time>
      </trkpt>
      <trkpt lat="45.67842" lon="6.20527">
        <ele>1415.8</ele>
        <time>2014-01-31T09:10:44Z</time>
      </trkpt>
      <trkpt lat="45.67853" lon="6.20524">
        <ele>1416.9</ele>
        <time>2014-01-31T09:10:59Z</time>
      </trkpt>
      <trkpt lat="45.67862" lon="6.20525">
        <ele>1419.6</ele>
        <time>2014-01-31T09:11:14Z</time>
      </trkpt>
      <trkpt lat="45.67868" lon="6.20514">
        <ele>1420.6</ele>
        <time>2014-01-31T09:11:29Z</time>
      </trkpt>
      <trkpt lat="45.67886" lon="6.20497">
        <ele>1425.1</ele>
        <time>2014-01-31T09:11:59Z</time>
      </trkpt>
      <trkpt lat="45.67896" lon="6.20487">
        <ele>1426.5</ele>
        <time>2014-01-31T09:12:14Z</time>
      </trkpt>
      <trkpt lat="45.67903" lon="6.20479">
        <ele>1428.9</ele>
        <time>2014-01-31T09:12:29Z</time>
      </trkpt>
      <trkpt lat="45.67915" lon="6.20475">
        <ele>1430.9</ele>
        <time>2014-01-31T09:12:44Z</time>
      </trkpt>
      <trkpt lat="45.6794" lon="6.20469">
        <ele>1435</ele>
        <time>2014-01-31T09:13:14Z</time>
      </trkpt>
      <trkpt lat="45.67945" lon="6.20477">
        <ele>1438</ele>
        <time>2014-01-31T09:13:29Z</time>
      </trkpt>
      <trkpt lat="45.67945" lon="6.2049">
        <ele>1441.5</ele>
        <time>2014-01-31T09:13:44Z</time>
      </trkpt>
      <trkpt lat="45.67945" lon="6.20503">
        <ele>1444</ele>
        <time>2014-01-31T09:13:59Z</time>
      </trkpt>
      <trkpt lat="45.67935" lon="6.20527">
        <ele>1449.3</ele>
        <time>2014-01-31T09:14:29Z</time>
      </trkpt>
      <trkpt lat="45.67942" lon="6.20535">
        <ele>1452.8</ele>
        <time>2014-01-31T09:14:44Z</time>
      </trkpt>
      <trkpt lat="45.67955" lon="6.20543">
        <ele>1455.7</ele>
        <time>2014-01-31T09:14:59Z</time>
      </trkpt>
      <trkpt lat="45.6797" lon="6.2055">
        <ele>1458.4</ele>
        <time>2014-01-31T09:15:14Z</time>
      </trkpt>
      <trkpt lat="45.67987" lon="6.20539">
        <ele>1464.3</ele>
        <time>2014-01-31T09:15:44Z</time>
      </trkpt>
      <trkpt lat="45.67996" lon="6.20537">
        <ele>1467.8</ele>
        <time>2014-01-31T09:15:59Z</time>
      </trkpt>
      <trkpt lat="45.67999" lon="6.20545">
        <ele>1470.9</ele>
        <time>2014-01-31T09:16:14Z</time>
      </trkpt>
      <trkpt lat="45.67997" lon="6.2056">
        <ele>1475.4</ele>
        <time>2014-01-31T09:16:29Z</time>
      </trkpt>
      <trkpt lat="45.68001" lon="6.20591">
        <ele>1481.8</ele>
        <time>2014-01-31T09:16:59Z</time>
      </trkpt>
      <trkpt lat="45.68011" lon="6.20602">
        <ele>1484.4</ele>
        <time>2014-01-31T09:17:14Z</time>
      </trkpt>
      <trkpt lat="45.6802" lon="6.20618">
        <ele>1486.7</ele>
        <time>2014-01-31T09:17:29Z</time>
      </trkpt>
      <trkpt lat="45.68027" lon="6.20621">
        <ele>1489.2</ele>
        <time>2014-01-31T09:17:44Z</time>
      </trkpt>
      <trkpt lat="45.6805" lon="6.20636">
        <ele>1493.4</ele>
        <time>2014-01-31T09:18:14Z</time>
      </trkpt>
      <trkpt lat="45.68054" lon="6.20645">
        <ele>1496</ele>
        <time>2014-01-31T09:18:29Z</time>
      </trkpt>
      <trkpt lat="45.68059" lon="6.20664">
        <ele>1498.5</ele>
        <time>2014-01-31T09:18:44Z</time>
      </trkpt>
      <trkpt lat="45.68064" lon="6.20678">
        <ele>1501</ele>
        <time>2014-01-31T09:18:59Z</time>
      </trkpt>
      <trkpt lat="45.68086" lon="6.20687">
        <ele>1505.5</ele>
        <time>2014-01-31T09:19:29Z</time>
      </trkpt>
      <trkpt lat="45.68095" lon="6.2069">
        <ele>1508.1</ele>
        <time>2014-01-31T09:19:44Z</time>
      </trkpt>
      <trkpt lat="45.68103" lon="6.20687">
        <ele>1510.1</ele>
        <time>2014-01-31T09:19:59Z</time>
      </trkpt>
      <trkpt lat="45.68116" lon="6.20684">
        <ele>1514.2</ele>
        <time>2014-01-31T09:20:14Z</time>
      </trkpt>
      <trkpt lat="45.68133" lon="6.2068">
        <ele>1519.5</ele>
        <time>2014-01-31T09:20:44Z</time>
      </trkpt>
      <trkpt lat="45.68138" lon="6.20668">
        <ele>1520.3</ele>
        <time>2014-01-31T09:20:59Z</time>
      </trkpt>
      <trkpt lat="45.68144" lon="6.2066">
        <ele>1523</ele>
        <time>2014-01-31T09:21:15Z</time>
      </trkpt>
      <trkpt lat="45.68149" lon="6.20686">
        <ele>1526.4</ele>
        <time>2014-01-31T09:21:46Z</time>
      </trkpt>
      <trkpt lat="45.68148" lon="6.20698">
        <ele>1529.1</ele>
        <time>2014-01-31T09:22:01Z</time>
      </trkpt>
      <trkpt lat="45.68147" lon="6.20708">
        <ele>1530.9</ele>
        <time>2014-01-31T09:22:16Z</time>
      </trkpt>
      <trkpt lat="45.68147" lon="6.20709">
        <ele>1531.5</ele>
        <time>2014-01-31T09:22:31Z</time>
      </trkpt>
      <trkpt lat="45.6815" lon="6.20695">
        <ele>1530.5</ele>
        <time>2014-01-31T09:23:01Z</time>
      </trkpt>
      <trkpt lat="45.6815" lon="6.20696">
        <ele>1530.1</ele>
        <time>2014-01-31T09:23:16Z</time>
      </trkpt>
      <trkpt lat="45.68147" lon="6.20694">
        <ele>1530.7</ele>
        <time>2014-01-31T09:23:31Z</time>
      </trkpt>
      <trkpt lat="45.68146" lon="6.20695">
        <ele>1531</ele>
        <time>2014-01-31T09:23:46Z</time>
      </trkpt>
      <trkpt lat="45.68153" lon="6.20699">
        <ele>1531.7</ele>
        <time>2014-01-31T09:24:16Z</time>
      </trkpt>
      <trkpt lat="45.68154" lon="6.20702">
        <ele>1532.7</ele>
        <time>2014-01-31T09:24:31Z</time>
      </trkpt>
      <trkpt lat="45.68158" lon="6.20703">
        <ele>1530.9</ele>
        <time>2014-01-31T09:24:46Z</time>
      </trkpt>
      <trkpt lat="45.68159" lon="6.207">
        <ele>1532.4</ele>
        <time>2014-01-31T09:25:01Z</time>
      </trkpt>
      <trkpt lat="45.6815" lon="6.20695">
        <ele>1530.3</ele>
        <time>2014-01-31T09:25:31Z</time>
      </trkpt>
      <trkpt lat="45.68149" lon="6.20698">
        <ele>1530.6</ele>
        <time>2014-01-31T09:25:46Z</time>
      </trkpt>
      <trkpt lat="45.68149" lon="6.20696">
        <ele>1531.7</ele>
        <time>2014-01-31T09:26:01Z</time>
      </trkpt>
      <trkpt lat="45.68149" lon="6.20696">
        <ele>1531.3</ele>
        <time>2014-01-31T09:26:16Z</time>
      </trkpt>
      <trkpt lat="45.68147" lon="6.20693">
        <ele>1531.4</ele>
        <time>2014-01-31T09:26:46Z</time>
      </trkpt>
      <trkpt lat="45.68147" lon="6.20692">
        <ele>1531.5</ele>
        <time>2014-01-31T09:27:01Z</time>
      </trkpt>
      <trkpt lat="45.68148" lon="6.20696">
        <ele>1531.4</ele>
        <time>2014-01-31T09:27:16Z</time>
      </trkpt>
      <trkpt lat="45.68149" lon="6.20696">
        <ele>1530.6</ele>
        <time>2014-01-31T09:27:31Z</time>
      </trkpt>
      <trkpt lat="45.68146" lon="6.20698">
        <ele>1531.7</ele>
        <time>2014-01-31T09:28:01Z</time>
      </trkpt>
      <trkpt lat="45.68146" lon="6.20705">
        <ele>1531.3</ele>
        <time>2014-01-31T09:28:16Z</time>
      </trkpt>
      <trkpt lat="45.68143" lon="6.20698">
        <ele>1532</ele>
        <time>2014-01-31T09:28:31Z</time>
      </trkpt>
      <trkpt lat="45.68145" lon="6.20698">
        <ele>1531.1</ele>
        <time>2014-01-31T09:28:46Z</time>
      </trkpt>
      <trkpt lat="45.68152" lon="6.20697">
        <ele>1531.2</ele>
        <time>2014-01-31T09:29:16Z</time>
      </trkpt>
      <trkpt lat="45.68154" lon="6.20699">
        <ele>1531.7</ele>
        <time>2014-01-31T09:29:31Z</time>
      </trkpt>
      <trkpt lat="45.68152" lon="6.20698">
        <ele>1530.2</ele>
        <time>2014-01-31T09:29:46Z</time>
      </trkpt>
      <trkpt lat="45.6815" lon="6.20698">
        <ele>1531.5</ele>
        <time>2014-01-31T09:30:01Z</time>
      </trkpt>
      <trkpt lat="45.68147" lon="6.20698">
        <ele>1530.4</ele>
        <time>2014-01-31T09:30:31Z</time>
      </trkpt>
      <trkpt lat="45.68145" lon="6.20696">
        <ele>1531</ele>
        <time>2014-01-31T09:30:46Z</time>
      </trkpt>
      <trkpt lat="45.68145" lon="6.20697">
        <ele>1532.2</ele>
        <time>2014-01-31T09:31:01Z</time>
      </trkpt>
      <trkpt lat="45.68145" lon="6.207">
        <ele>1531.4</ele>
        <time>2014-01-31T09:31:16Z</time>
      </trkpt>
      <trkpt lat="45.68147" lon="6.20702">
        <ele>1530.2</ele>
        <time>2014-01-31T09:31:46Z</time>
      </trkpt>
      <trkpt lat="45.68144" lon="6.20709">
        <ele>1531.9</ele>
        <time>2014-01-31T09:32:01Z</time>
      </trkpt>
      <trkpt lat="45.68137" lon="6.20712">
        <ele>1532</ele>
        <time>2014-01-31T09:32:16Z</time>
      </trkpt>
      <trkpt lat="45.68125" lon="6.20716">
        <ele>1532.4</ele>
        <time>2014-01-31T09:32:31Z</time>
      </trkpt>
      <trkpt lat="45.68105" lon="6.20732">
        <ele>1535.1</ele>
        <time>2014-01-31T09:33:01Z</time>
      </trkpt>
      <trkpt lat="45.68096" lon="6.20746">
        <ele>1538</ele>
        <time>2014-01-31T09:33:16Z</time>
      </trkpt>
      <trkpt lat="45.68085" lon="6.20756">
        <ele>1539.1</ele>
        <time>2014-01-31T09:33:31Z</time>
      </trkpt>
      <trkpt lat="45.68074" lon="6.2076">
        <ele>1541.9</ele>
        <time>2014-01-31T09:33:46Z</time>
      </trkpt>
      <trkpt lat="45.6806" lon="6.20784">
        <ele>1545.6</ele>
        <time>2014-01-31T09:34:16Z</time>
      </trkpt>
      <trkpt lat="45.68053" lon="6.20795">
        <ele>1547</ele>
        <time>2014-01-31T09:34:31Z</time>
      </trkpt>
      <trkpt lat="45.68044" lon="6.20802">
        <ele>1549.1</ele>
        <time>2014-01-31T09:34:46Z</time>
      </trkpt>
      <trkpt lat="45.68033" lon="6.20807">
        <ele>1551.1</ele>
        <time>2014-01-31T09:35:01Z</time>
      </trkpt>
      <trkpt lat="45.68012" lon="6.20809">
        <ele>1554.2</ele>
        <time>2014-01-31T09:35:31Z</time>
      </trkpt>
      <trkpt lat="45.68003" lon="6.20811">
        <ele>1556.2</ele>
        <time>2014-01-31T09:35:46Z</time>
      </trkpt>
      <trkpt lat="45.67994" lon="6.20809">
        <ele>1556.9</ele>
        <time>2014-01-31T09:36:01Z</time>
      </trkpt>
      <trkpt lat="45.67981" lon="6.2081">
        <ele>1559.6</ele>
        <time>2014-01-31T09:36:16Z</time>
      </trkpt>
      <trkpt lat="45.67951" lon="6.20808">
        <ele>1563</ele>
        <time>2014-01-31T09:36:46Z</time>
      </trkpt>
      <trkpt lat="45.67934" lon="6.20806">
        <ele>1563.9</ele>
        <time>2014-01-31T09:37:01Z</time>
      </trkpt>
      <trkpt lat="45.67919" lon="6.2081">
        <ele>1565</ele>
        <time>2014-01-31T09:37:16Z</time>
      </trkpt>
      <trkpt lat="45.67903" lon="6.20809">
        <ele>1568.3</ele>
        <time>2014-01-31T09:37:31Z</time>
      </trkpt>
      <trkpt lat="45.67873" lon="6.20805">
        <ele>1571</ele>
        <time>2014-01-31T09:38:01Z</time>
      </trkpt>
      <trkpt lat="45.67859" lon="6.2081">
        <ele>1572</ele>
        <time>2014-01-31T09:38:16Z</time>
      </trkpt>
      <trkpt lat="45.67847" lon="6.20819">
        <ele>1574.1</ele>
        <time>2014-01-31T09:38:31Z</time>
      </trkpt>
      <trkpt lat="45.67846" lon="6.20828">
        <ele>1575.6</ele>
        <time>2014-01-31T09:38:46Z</time>
      </trkpt>
      <trkpt lat="45.67852" lon="6.20842">
        <ele>1576.1</ele>
        <time>2014-01-31T09:39:16Z</time>
      </trkpt>
      <trkpt lat="45.67854" lon="6.20853">
        <ele>1578.1</ele>
        <time>2014-01-31T09:39:31Z</time>
      </trkpt>
      <trkpt lat="45.67854" lon="6.20858">
        <ele>1579.4</ele>
        <time>2014-01-31T09:39:46Z</time>
      </trkpt>
      <trkpt lat="45.67852" lon="6.20857">
        <ele>1579.2</ele>
        <time>2014-01-31T09:40:01Z</time>
      </trkpt>
      <trkpt lat="45.67853" lon="6.20856">
        <ele>1579</ele>
        <time>2014-01-31T09:40:31Z</time>
      </trkpt>
      <trkpt lat="45.67853" lon="6.20859">
        <ele>1578.3</ele>
        <time>2014-01-31T09:40:46Z</time>
      </trkpt>
      <trkpt lat="45.67855" lon="6.2086">
        <ele>1578.3</ele>
        <time>2014-01-31T09:41:01Z</time>
      </trkpt>
      <trkpt lat="45.67853" lon="6.20859">
        <ele>1578.4</ele>
        <time>2014-01-31T09:41:16Z</time>
      </trkpt>
      <trkpt lat="45.67855" lon="6.20854">
        <ele>1578.4</ele>
        <time>2014-01-31T09:41:46Z</time>
      </trkpt>
      <trkpt lat="45.67853" lon="6.20856">
        <ele>1578.5</ele>
        <time>2014-01-31T09:42:01Z</time>
      </trkpt>
      <trkpt lat="45.67854" lon="6.20853">
        <ele>1578.6</ele>
        <time>2014-01-31T09:42:16Z</time>
      </trkpt>
      <trkpt lat="45.67856" lon="6.20859">
        <ele>1579.8</ele>
        <time>2014-01-31T09:42:31Z</time>
      </trkpt>
      <trkpt lat="45.67856" lon="6.20861">
        <ele>1579.1</ele>
        <time>2014-01-31T09:43:01Z</time>
      </trkpt>
      <trkpt lat="45.67856" lon="6.20859">
        <ele>1578.5</ele>
        <time>2014-01-31T09:43:16Z</time>
      </trkpt>
      <trkpt lat="45.67856" lon="6.20859">
        <ele>1579</ele>
        <time>2014-01-31T09:43:31Z</time>
      </trkpt>
      <trkpt lat="45.67856" lon="6.20859">
        <ele>1579.2</ele>
        <time>2014-01-31T09:43:46Z</time>
      </trkpt>
      <trkpt lat="45.67856" lon="6.20858">
        <ele>1580.1</ele>
        <time>2014-01-31T09:44:16Z</time>
      </trkpt>
      <trkpt lat="45.67861" lon="6.20865">
        <ele>1580.5</ele>
        <time>2014-01-31T09:44:31Z</time>
      </trkpt>
      <trkpt lat="45.67868" lon="6.20875">
        <ele>1582.3</ele>
        <time>2014-01-31T09:44:46Z</time>
      </trkpt>
      <trkpt lat="45.67874" lon="6.20883">
        <ele>1584.3</ele>
        <time>2014-01-31T09:45:01Z</time>
      </trkpt>
      <trkpt lat="45.67887" lon="6.20903">
        <ele>1588.1</ele>
        <time>2014-01-31T09:45:31Z</time>
      </trkpt>
      <trkpt lat="45.67895" lon="6.20912">
        <ele>1590.8</ele>
        <time>2014-01-31T09:45:46Z</time>
      </trkpt>
      <trkpt lat="45.67903" lon="6.20918">
        <ele>1593.3</ele>
        <time>2014-01-31T09:46:01Z</time>
      </trkpt>
      <trkpt lat="45.67903" lon="6.2093">
        <ele>1595.3</ele>
        <time>2014-01-31T09:46:16Z</time>
      </trkpt>
      <trkpt lat="45.67913" lon="6.20953">
        <ele>1599.4</ele>
        <time>2014-01-31T09:46:46Z</time>
      </trkpt>
      <trkpt lat="45.6792" lon="6.20962">
        <ele>1601</ele>
        <time>2014-01-31T09:47:01Z</time>
      </trkpt>
      <trkpt lat="45.67926" lon="6.2097">
        <ele>1603</ele>
        <time>2014-01-31T09:47:16Z</time>
      </trkpt>
      <trkpt lat="45.67933" lon="6.20978">
        <ele>1604.7</ele>
        <time>2014-01-31T09:47:31Z</time>
      </trkpt>
      <trkpt lat="45.6794" lon="6.20994">
        <ele>1609.7</ele>
        <time>2014-01-31T09:48:01Z</time>
      </trkpt>
      <trkpt lat="45.6794" lon="6.21004">
        <ele>1613.3</ele>
        <time>2014-01-31T09:48:16Z</time>
      </trkpt>
      <trkpt lat="45.67942" lon="6.21016">
        <ele>1615.4</ele>
        <time>2014-01-31T09:48:31Z</time>
      </trkpt>
      <trkpt lat="45.67945" lon="6.21026">
        <ele>1616.9</ele>
        <time>2014-01-31T09:48:46Z</time>
      </trkpt>
      <trkpt lat="45.67949" lon="6.21046">
        <ele>1621.1</ele>
        <time>2014-01-31T09:49:16Z</time>
      </trkpt>
      <trkpt lat="45.67951" lon="6.21058">
        <ele>1624.1</ele>
        <time>2014-01-31T09:49:31Z</time>
      </trkpt>
      <trkpt lat="45.67952" lon="6.21071">
        <ele>1625.5</ele>
        <time>2014-01-31T09:49:46Z</time>
      </trkpt>
      <trkpt lat="45.67952" lon="6.21084">
        <ele>1627.7</ele>
        <time>2014-01-31T09:50:01Z</time>
      </trkpt>
      <trkpt lat="45.67958" lon="6.21108">
        <ele>1632.3</ele>
        <time>2014-01-31T09:50:31Z</time>
      </trkpt>
      <trkpt lat="45.67959" lon="6.21119">
        <ele>1634.3</ele>
        <time>2014-01-31T09:50:46Z</time>
      </trkpt>
      <trkpt lat="45.67961" lon="6.21131">
        <ele>1637.8</ele>
        <time>2014-01-31T09:51:01Z</time>
      </trkpt>
      <trkpt lat="45.67963" lon="6.21144">
        <ele>1637.4</ele>
        <time>2014-01-31T09:51:16Z</time>
      </trkpt>
      <trkpt lat="45.67966" lon="6.21168">
        <ele>1643.5</ele>
        <time>2014-01-31T09:51:46Z</time>
      </trkpt>
      <trkpt lat="45.67971" lon="6.21167">
        <ele>1644.3</ele>
        <time>2014-01-31T09:52:01Z</time>
      </trkpt>
      <trkpt lat="45.6798" lon="6.21162">
        <ele>1647.6</ele>
        <time>2014-01-31T09:52:16Z</time>
      </trkpt>
      <trkpt lat="45.67988" lon="6.21156">
        <ele>1649.7</ele>
        <time>2014-01-31T09:52:31Z</time>
      </trkpt>
      <trkpt lat="45.68001" lon="6.21146">
        <ele>1653.5</ele>
        <time>2014-01-31T09:53:01Z</time>
      </trkpt>
      <trkpt lat="45.68008" lon="6.2114">
        <ele>1655.7</ele>
        <time>2014-01-31T09:53:16Z</time>
      </trkpt>
      <trkpt lat="45.68014" lon="6.21135">
        <ele>1657.5</ele>
        <time>2014-01-31T09:53:31Z</time>
      </trkpt>
      <trkpt lat="45.6802" lon="6.21132">
        <ele>1659.6</ele>
        <time>2014-01-31T09:53:46Z</time>
      </trkpt>
      <trkpt lat="45.68021" lon="6.21154">
        <ele>1664.3</ele>
        <time>2014-01-31T09:54:16Z</time>
      </trkpt>
      <trkpt lat="45.68021" lon="6.21166">
        <ele>1666.9</ele>
        <time>2014-01-31T09:54:31Z</time>
      </trkpt>
      <trkpt lat="45.68021" lon="6.21178">
        <ele>1669.2</ele>
        <time>2014-01-31T09:54:46Z</time>
      </trkpt>
      <trkpt lat="45.68023" lon="6.21188">
        <ele>1670.5</ele>
        <time>2014-01-31T09:55:01Z</time>
      </trkpt>
      <trkpt lat="45.68029" lon="6.21195">
        <ele>1674.3</ele>
        <time>2014-01-31T09:55:31Z</time>
      </trkpt>
      <trkpt lat="45.68035" lon="6.21188">
        <ele>1676.2</ele>
        <time>2014-01-31T09:55:46Z</time>
      </trkpt>
      <trkpt lat="45.6804" lon="6.2118">
        <ele>1678</ele>
        <time>2014-01-31T09:56:01Z</time>
      </trkpt>
      <trkpt lat="45.68046" lon="6.21174">
        <ele>1679.9</ele>
        <time>2014-01-31T09:56:16Z</time>
      </trkpt>
      <trkpt lat="45.6805" lon="6.21189">
        <ele>1684.4</ele>
        <time>2014-01-31T09:56:46Z</time>
      </trkpt>
      <trkpt lat="45.68049" lon="6.21202">
        <ele>1686.1</ele>
        <time>2014-01-31T09:57:01Z</time>
      </trkpt>
      <trkpt lat="45.6805" lon="6.21212">
        <ele>1688.2</ele>
        <time>2014-01-31T09:57:16Z</time>
      </trkpt>
      <trkpt lat="45.68053" lon="6.21209">
        <ele>1691</ele>
        <time>2014-01-31T09:57:31Z</time>
      </trkpt>
      <trkpt lat="45.68063" lon="6.21199">
        <ele>1694.4</ele>
        <time>2014-01-31T09:58:01Z</time>
      </trkpt>
      <trkpt lat="45.68068" lon="6.21197">
        <ele>1696.6</ele>
        <time>2014-01-31T09:58:16Z</time>
      </trkpt>
      <trkpt lat="45.68069" lon="6.212">
        <ele>1699.5</ele>
        <time>2014-01-31T09:58:31Z</time>
      </trkpt>
      <trkpt lat="45.68064" lon="6.2121">
        <ele>1700.6</ele>
        <time>2014-01-31T09:58:46Z</time>
      </trkpt>
      <trkpt lat="45.68055" lon="6.21236">
        <ele>1703.2</ele>
        <time>2014-01-31T09:59:16Z</time>
      </trkpt>
      <trkpt lat="45.6805" lon="6.21248">
        <ele>1704.2</ele>
        <time>2014-01-31T09:59:31Z</time>
      </trkpt>
      <trkpt lat="45.68045" lon="6.21254">
        <ele>1705.8</ele>
        <time>2014-01-31T09:59:46Z</time>
      </trkpt>
      <trkpt lat="45.68041" lon="6.2126">
        <ele>1707.2</ele>
        <time>2014-01-31T10:00:01Z</time>
      </trkpt>
      <trkpt lat="45.68037" lon="6.21279">
        <ele>1709.8</ele>
        <time>2014-01-31T10:00:31Z</time>
      </trkpt>
      <trkpt lat="45.68037" lon="6.21288">
        <ele>1712.6</ele>
        <time>2014-01-31T10:00:46Z</time>
      </trkpt>
      <trkpt lat="45.68043" lon="6.21287">
        <ele>1713.7</ele>
        <time>2014-01-31T10:01:01Z</time>
      </trkpt>
      <trkpt lat="45.68042" lon="6.21286">
        <ele>1714.8</ele>
        <time>2014-01-31T10:01:16Z</time>
      </trkpt>
      <trkpt lat="45.68049" lon="6.21283">
        <ele>1715.3</ele>
        <time>2014-01-31T10:01:46Z</time>
      </trkpt>
      <trkpt lat="45.68056" lon="6.2128">
        <ele>1717.9</ele>
        <time>2014-01-31T10:02:01Z</time>
      </trkpt>
      <trkpt lat="45.68055" lon="6.21288">
        <ele>1720.4</ele>
        <time>2014-01-31T10:02:16Z</time>
      </trkpt>
      <trkpt lat="45.68051" lon="6.21297">
        <ele>1722.3</ele>
        <time>2014-01-31T10:02:31Z</time>
      </trkpt>
      <trkpt lat="45.68046" lon="6.21317">
        <ele>1728</ele>
        <time>2014-01-31T10:03:01Z</time>
      </trkpt>
      <trkpt lat="45.68045" lon="6.21326">
        <ele>1728.6</ele>
        <time>2014-01-31T10:03:16Z</time>
      </trkpt>
      <trkpt lat="45.68046" lon="6.21335">
        <ele>1731.9</ele>
        <time>2014-01-31T10:03:31Z</time>
      </trkpt>
      <trkpt lat="45.68047" lon="6.21348">
        <ele>1734</ele>
        <time>2014-01-31T10:03:46Z</time>
      </trkpt>
      <trkpt lat="45.68055" lon="6.21369">
        <ele>1738.3</ele>
        <time>2014-01-31T10:04:16Z</time>
      </trkpt>
      <trkpt lat="45.68057" lon="6.21376">
        <ele>1741</ele>
        <time>2014-01-31T10:04:31Z</time>
      </trkpt>
      <trkpt lat="45.68059" lon="6.2139">
        <ele>1743</ele>
        <time>2014-01-31T10:04:46Z</time>
      </trkpt>
      <trkpt lat="45.6806" lon="6.21405">
        <ele>1743.9</ele>
        <time>2014-01-31T10:05:01Z</time>
      </trkpt>
      <trkpt lat="45.68061" lon="6.21429">
        <ele>1749</ele>
        <time>2014-01-31T10:05:31Z</time>
      </trkpt>
      <trkpt lat="45.68057" lon="6.21438">
        <ele>1751</ele>
        <time>2014-01-31T10:05:46Z</time>
      </trkpt>
      <trkpt lat="45.68052" lon="6.2145">
        <ele>1752.1</ele>
        <time>2014-01-31T10:06:01Z</time>
      </trkpt>
      <trkpt lat="45.68046" lon="6.21456">
        <ele>1754</ele>
        <time>2014-01-31T10:06:16Z</time>
      </trkpt>
      <trkpt lat="45.68042" lon="6.21468">
        <ele>1759.2</ele>
        <time>2014-01-31T10:06:46Z</time>
      </trkpt>
      <trkpt lat="45.68046" lon="6.21476">
        <ele>1760.7</ele>
        <time>2014-01-31T10:07:01Z</time>
      </trkpt>
      <trkpt lat="45.68052" lon="6.21484">
        <ele>1762.7</ele>
        <time>2014-01-31T10:07:16Z</time>
      </trkpt>
      <trkpt lat="45.68058" lon="6.21488">
        <ele>1764.4</ele>
        <time>2014-01-31T10:07:31Z</time>
      </trkpt>
      <trkpt lat="45.68061" lon="6.21499">
        <ele>1769.9</ele>
        <time>2014-01-31T10:08:01Z</time>
      </trkpt>
      <trkpt lat="45.68055" lon="6.21506">
        <ele>1771.6</ele>
        <time>2014-01-31T10:08:16Z</time>
      </trkpt>
      <trkpt lat="45.68052" lon="6.21513">
        <ele>1774.4</ele>
        <time>2014-01-31T10:08:31Z</time>
      </trkpt>
      <trkpt lat="45.68048" lon="6.2152">
        <ele>1776.7</ele>
        <time>2014-01-31T10:08:46Z</time>
      </trkpt>
      <trkpt lat="45.68049" lon="6.21546">
        <ele>1781.1</ele>
        <time>2014-01-31T10:09:16Z</time>
      </trkpt>
      <trkpt lat="45.68051" lon="6.21558">
        <ele>1782.8</ele>
        <time>2014-01-31T10:09:31Z</time>
      </trkpt>
      <trkpt lat="45.68053" lon="6.21568">
        <ele>1785.3</ele>
        <time>2014-01-31T10:09:46Z</time>
      </trkpt>
      <trkpt lat="45.68053" lon="6.21578">
        <ele>1787.2</ele>
        <time>2014-01-31T10:10:01Z</time>
      </trkpt>
      <trkpt lat="45.68054" lon="6.21597">
        <ele>1791.5</ele>
        <time>2014-01-31T10:10:31Z</time>
      </trkpt>
      <trkpt lat="45.68052" lon="6.21611">
        <ele>1793</ele>
        <time>2014-01-31T10:10:46Z</time>
      </trkpt>
      <trkpt lat="45.6805" lon="6.21624">
        <ele>1794.5</ele>
        <time>2014-01-31T10:11:01Z</time>
      </trkpt>
      <trkpt lat="45.68049" lon="6.21636">
        <ele>1796.4</ele>
        <time>2014-01-31T10:11:16Z</time>
      </trkpt>
      <trkpt lat="45.68045" lon="6.21657">
        <ele>1801.3</ele>
        <time>2014-01-31T10:11:46Z</time>
      </trkpt>
      <trkpt lat="45.68045" lon="6.21669">
        <ele>1804.1</ele>
        <time>2014-01-31T10:12:01Z</time>
      </trkpt>
      <trkpt lat="45.68043" lon="6.2168">
        <ele>1806.7</ele>
        <time>2014-01-31T10:12:16Z</time>
      </trkpt>
      <trkpt lat="45.68043" lon="6.2169">
        <ele>1808.5</ele>
        <time>2014-01-31T10:12:31Z</time>
      </trkpt>
      <trkpt lat="45.68037" lon="6.21711">
        <ele>1812.9</ele>
        <time>2014-01-31T10:13:01Z</time>
      </trkpt>
      <trkpt lat="45.68036" lon="6.21721">
        <ele>1816</ele>
        <time>2014-01-31T10:13:16Z</time>
      </trkpt>
      <trkpt lat="45.68035" lon="6.2173">
        <ele>1818.3</ele>
        <time>2014-01-31T10:13:31Z</time>
      </trkpt>
      <trkpt lat="45.68035" lon="6.21742">
        <ele>1821.3</ele>
        <time>2014-01-31T10:13:46Z</time>
      </trkpt>
      <trkpt lat="45.6804" lon="6.21755">
        <ele>1824.7</ele>
        <time>2014-01-31T10:14:16Z</time>
      </trkpt>
      <trkpt lat="45.6805" lon="6.21752">
        <ele>1827.5</ele>
        <time>2014-01-31T10:14:31Z</time>
      </trkpt>
      <trkpt lat="45.68059" lon="6.21752">
        <ele>1829.7</ele>
        <time>2014-01-31T10:14:46Z</time>
      </trkpt>
      <trkpt lat="45.68064" lon="6.2175">
        <ele>1832.1</ele>
        <time>2014-01-31T10:15:01Z</time>
      </trkpt>
      <trkpt lat="45.68065" lon="6.21764">
        <ele>1837.1</ele>
        <time>2014-01-31T10:15:31Z</time>
      </trkpt>
      <trkpt lat="45.68062" lon="6.21774">
        <ele>1837.5</ele>
        <time>2014-01-31T10:15:46Z</time>
      </trkpt>
      <trkpt lat="45.68058" lon="6.21785">
        <ele>1840.8</ele>
        <time>2014-01-31T10:16:01Z</time>
      </trkpt>
      <trkpt lat="45.68053" lon="6.21793">
        <ele>1842.7</ele>
        <time>2014-01-31T10:16:16Z</time>
      </trkpt>
      <trkpt lat="45.68052" lon="6.21807">
        <ele>1848.8</ele>
        <time>2014-01-31T10:16:46Z</time>
      </trkpt>
      <trkpt lat="45.6806" lon="6.21806">
        <ele>1849.8</ele>
        <time>2014-01-31T10:17:01Z</time>
      </trkpt>
      <trkpt lat="45.68068" lon="6.21803">
        <ele>1853</ele>
        <time>2014-01-31T10:17:16Z</time>
      </trkpt>
      <trkpt lat="45.68074" lon="6.218">
        <ele>1855.5</ele>
        <time>2014-01-31T10:17:31Z</time>
      </trkpt>
      <trkpt lat="45.68073" lon="6.21816">
        <ele>1859.7</ele>
        <time>2014-01-31T10:18:01Z</time>
      </trkpt>
      <trkpt lat="45.68073" lon="6.21829">
        <ele>1861.4</ele>
        <time>2014-01-31T10:18:16Z</time>
      </trkpt>
      <trkpt lat="45.68073" lon="6.2184">
        <ele>1863.6</ele>
        <time>2014-01-31T10:18:31Z</time>
      </trkpt>
      <trkpt lat="45.68072" lon="6.21852">
        <ele>1866.2</ele>
        <time>2014-01-31T10:18:46Z</time>
      </trkpt>
      <trkpt lat="45.68073" lon="6.21874">
        <ele>1870.5</ele>
        <time>2014-01-31T10:19:16Z</time>
      </trkpt>
      <trkpt lat="45.68075" lon="6.21885">
        <ele>1871.7</ele>
        <time>2014-01-31T10:19:31Z</time>
      </trkpt>
      <trkpt lat="45.68075" lon="6.21897">
        <ele>1873.5</ele>
        <time>2014-01-31T10:19:46Z</time>
      </trkpt>
      <trkpt lat="45.68082" lon="6.21903">
        <ele>1875.6</ele>
        <time>2014-01-31T10:20:01Z</time>
      </trkpt>
      <trkpt lat="45.68083" lon="6.21915">
        <ele>1880.4</ele>
        <time>2014-01-31T10:20:31Z</time>
      </trkpt>
      <trkpt lat="45.68084" lon="6.21916">
        <ele>1881.4</ele>
        <time>2014-01-31T10:20:46Z</time>
      </trkpt>
      <trkpt lat="45.68085" lon="6.21915">
        <ele>1880.6</ele>
        <time>2014-01-31T10:21:01Z</time>
      </trkpt>
      <trkpt lat="45.68087" lon="6.21917">
        <ele>1880.7</ele>
        <time>2014-01-31T10:21:16Z</time>
      </trkpt>
      <trkpt lat="45.68086" lon="6.21916">
        <ele>1882</ele>
        <time>2014-01-31T10:21:46Z</time>
      </trkpt>
      <trkpt lat="45.68085" lon="6.21913">
        <ele>1881.3</ele>
        <time>2014-01-31T10:22:01Z</time>
      </trkpt>
      <trkpt lat="45.68085" lon="6.21913">
        <ele>1881.6</ele>
        <time>2014-01-31T10:22:16Z</time>
      </trkpt>
      <trkpt lat="45.68087" lon="6.21913">
        <ele>1881</ele>
        <time>2014-01-31T10:22:31Z</time>
      </trkpt>
      <trkpt lat="45.68087" lon="6.21915">
        <ele>1881</ele>
        <time>2014-01-31T10:23:01Z</time>
      </trkpt>
      <trkpt lat="45.68086" lon="6.21915">
        <ele>1881</ele>
        <time>2014-01-31T10:23:16Z</time>
      </trkpt>
      <trkpt lat="45.68084" lon="6.21915">
        <ele>1880.7</ele>
        <time>2014-01-31T10:23:31Z</time>
      </trkpt>
      <trkpt lat="45.68082" lon="6.21918">
        <ele>1880.9</ele>
        <time>2014-01-31T10:23:46Z</time>
      </trkpt>
      <trkpt lat="45.68083" lon="6.21915">
        <ele>1881</ele>
        <time>2014-01-31T10:24:16Z</time>
      </trkpt>
      <trkpt lat="45.68084" lon="6.21914">
        <ele>1879.9</ele>
        <time>2014-01-31T10:24:31Z</time>
      </trkpt>
      <trkpt lat="45.68084" lon="6.21915">
        <ele>1879.8</ele>
        <time>2014-01-31T10:24:46Z</time>
      </trkpt>
      <trkpt lat="45.68083" lon="6.21913">
        <ele>1880.1</ele>
        <time>2014-01-31T10:25:01Z</time>
      </trkpt>
      <trkpt lat="45.68085" lon="6.21914">
        <ele>1879.4</ele>
        <time>2014-01-31T10:25:31Z</time>
      </trkpt>
      <trkpt lat="45.68086" lon="6.21913">
        <ele>1880.1</ele>
        <time>2014-01-31T10:25:46Z</time>
      </trkpt>
      <trkpt lat="45.68086" lon="6.21911">
        <ele>1878.8</ele>
        <time>2014-01-31T10:26:01Z</time>
      </trkpt>
      <trkpt lat="45.68086" lon="6.21911">
        <ele>1879.6</ele>
        <time>2014-01-31T10:26:16Z</time>
      </trkpt>
      <trkpt lat="45.68086" lon="6.21912">
        <ele>1879.5</ele>
        <time>2014-01-31T10:26:46Z</time>
      </trkpt>
      <trkpt lat="45.68086" lon="6.21915">
        <ele>1880.2</ele>
        <time>2014-01-31T10:27:01Z</time>
      </trkpt>
      <trkpt lat="45.68087" lon="6.21915">
        <ele>1880.5</ele>
        <time>2014-01-31T10:27:16Z</time>
      </trkpt>
      <trkpt lat="45.68089" lon="6.21916">
        <ele>1879.3</ele>
        <time>2014-01-31T10:27:31Z</time>
      </trkpt>
      <trkpt lat="45.68081" lon="6.21911">
        <ele>1880</ele>
        <time>2014-01-31T10:28:01Z</time>
      </trkpt>
      <trkpt lat="45.68078" lon="6.21908">
        <ele>1879.7</ele>
        <time>2014-01-31T10:28:16Z</time>
      </trkpt>
      <trkpt lat="45.68079" lon="6.21908">
        <ele>1879.1</ele>
        <time>2014-01-31T10:28:31Z</time>
      </trkpt>
      <trkpt lat="45.68083" lon="6.21913">
        <ele>1881.2</ele>
        <time>2014-01-31T10:28:46Z</time>
      </trkpt>
      <trkpt lat="45.68086" lon="6.21918">
        <ele>1880.8</ele>
        <time>2014-01-31T10:29:16Z</time>
      </trkpt>
      <trkpt lat="45.68085" lon="6.21917">
        <ele>1882.3</ele>
        <time>2014-01-31T10:29:31Z</time>
      </trkpt>
      <trkpt lat="45.68085" lon="6.21915">
        <ele>1880.9</ele>
        <time>2014-01-31T10:29:46Z</time>
      </trkpt>
      <trkpt lat="45.68084" lon="6.21913">
        <ele>1881.2</ele>
        <time>2014-01-31T10:30:01Z</time>
      </trkpt>
      <trkpt lat="45.68082" lon="6.21915">
        <ele>1881.6</ele>
        <time>2014-01-31T10:30:31Z</time>
      </trkpt>
      <trkpt lat="45.68081" lon="6.21914">
        <ele>1881.2</ele>
        <time>2014-01-31T10:30:46Z</time>
      </trkpt>
      <trkpt lat="45.68082" lon="6.21914">
        <ele>1880</ele>
        <time>2014-01-31T10:31:01Z</time>
      </trkpt>
      <trkpt lat="45.68083" lon="6.21913">
        <ele>1881.2</ele>
        <time>2014-01-31T10:31:16Z</time>
      </trkpt>
      <trkpt lat="45.68084" lon="6.21911">
        <ele>1881.8</ele>
        <time>2014-01-31T10:31:46Z</time>
      </trkpt>
      <trkpt lat="45.68086" lon="6.21916">
        <ele>1883.1</ele>
        <time>2014-01-31T10:32:01Z</time>
      </trkpt>
      <trkpt lat="45.68085" lon="6.21917">
        <ele>1883.1</ele>
        <time>2014-01-31T10:32:16Z</time>
      </trkpt>
      <trkpt lat="45.68085" lon="6.2192">
        <ele>1883.1</ele>
        <time>2014-01-31T10:32:31Z</time>
      </trkpt>
      <trkpt lat="45.68094" lon="6.21929">
        <ele>1886.5</ele>
        <time>2014-01-31T10:33:01Z</time>
      </trkpt>
      <trkpt lat="45.681" lon="6.21937">
        <ele>1889.5</ele>
        <time>2014-01-31T10:33:16Z</time>
      </trkpt>
      <trkpt lat="45.68105" lon="6.21945">
        <ele>1892.8</ele>
        <time>2014-01-31T10:33:31Z</time>
      </trkpt>
      <trkpt lat="45.68111" lon="6.21952">
        <ele>1894.6</ele>
        <time>2014-01-31T10:33:46Z</time>
      </trkpt>
      <trkpt lat="45.68122" lon="6.21966">
        <ele>1899.7</ele>
        <time>2014-01-31T10:34:16Z</time>
      </trkpt>
      <trkpt lat="45.68127" lon="6.21973">
        <ele>1902.8</ele>
        <time>2014-01-31T10:34:31Z</time>
      </trkpt>
      <trkpt lat="45.68133" lon="6.2198">
        <ele>1906.2</ele>
        <time>2014-01-31T10:34:46Z</time>
      </trkpt>
      <trkpt lat="45.68139" lon="6.21987">
        <ele>1906.9</ele>
        <time>2014-01-31T10:35:01Z</time>
      </trkpt>
      <trkpt lat="45.68149" lon="6.22001">
        <ele>1912.1</ele>
        <time>2014-01-31T10:35:31Z</time>
      </trkpt>
      <trkpt lat="45.68156" lon="6.22006">
        <ele>1914.5</ele>
        <time>2014-01-31T10:35:46Z</time>
      </trkpt>
      <trkpt lat="45.68162" lon="6.22006">
        <ele>1917.3</ele>
        <time>2014-01-31T10:36:01Z</time>
      </trkpt>
      <trkpt lat="45.68169" lon="6.22009">
        <ele>1918.5</ele>
        <time>2014-01-31T10:36:16Z</time>
      </trkpt>
      <trkpt lat="45.68185" lon="6.22008">
        <ele>1922.6</ele>
        <time>2014-01-31T10:36:46Z</time>
      </trkpt>
      <trkpt lat="45.68193" lon="6.22005">
        <ele>1924.9</ele>
        <time>2014-01-31T10:37:01Z</time>
      </trkpt>
      <trkpt lat="45.68201" lon="6.22003">
        <ele>1927.7</ele>
        <time>2014-01-31T10:37:16Z</time>
      </trkpt>
      <trkpt lat="45.68205" lon="6.21998">
        <ele>1931.3</ele>
        <time>2014-01-31T10:37:31Z</time>
      </trkpt>
      <trkpt lat="45.68216" lon="6.21989">
        <ele>1935.4</ele>
        <time>2014-01-31T10:38:01Z</time>
      </trkpt>
      <trkpt lat="45.68222" lon="6.21987">
        <ele>1937.4</ele>
        <time>2014-01-31T10:38:16Z</time>
      </trkpt>
      <trkpt lat="45.68229" lon="6.21982">
        <ele>1940</ele>
        <time>2014-01-31T10:38:31Z</time>
      </trkpt>
      <trkpt lat="45.68235" lon="6.21973">
        <ele>1943.3</ele>
        <time>2014-01-31T10:38:46Z</time>
      </trkpt>
      <trkpt lat="45.6825" lon="6.21983">
        <ele>1947.3</ele>
        <time>2014-01-31T10:39:16Z</time>
      </trkpt>
      <trkpt lat="45.68253" lon="6.21993">
        <ele>1948.8</ele>
        <time>2014-01-31T10:39:31Z</time>
      </trkpt>
      <trkpt lat="45.68258" lon="6.22">
        <ele>1951.5</ele>
        <time>2014-01-31T10:39:46Z</time>
      </trkpt>
      <trkpt lat="45.68264" lon="6.21993">
        <ele>1953.9</ele>
        <time>2014-01-31T10:40:01Z</time>
      </trkpt>
      <trkpt lat="45.68269" lon="6.21984">
        <ele>1958.6</ele>
        <time>2014-01-31T10:40:31Z</time>
      </trkpt>
      <trkpt lat="45.68272" lon="6.21994">
        <ele>1961</ele>
        <time>2014-01-31T10:40:46Z</time>
      </trkpt>
      <trkpt lat="45.68277" lon="6.22">
        <ele>1963.5</ele>
        <time>2014-01-31T10:41:01Z</time>
      </trkpt>
      <trkpt lat="45.68281" lon="6.21998">
        <ele>1966.7</ele>
        <time>2014-01-31T10:41:16Z</time>
      </trkpt>
      <trkpt lat="45.68287" lon="6.21992">
        <ele>1971.3</ele>
        <time>2014-01-31T10:41:46Z</time>
      </trkpt>
      <trkpt lat="45.68291" lon="6.22">
        <ele>1974.2</ele>
        <time>2014-01-31T10:42:01Z</time>
      </trkpt>
      <trkpt lat="45.68297" lon="6.2201">
        <ele>1975.6</ele>
        <time>2014-01-31T10:42:16Z</time>
      </trkpt>
      <trkpt lat="45.68302" lon="6.22017">
        <ele>1978.4</ele>
        <time>2014-01-31T10:42:31Z</time>
      </trkpt>
      <trkpt lat="45.68311" lon="6.22036">
        <ele>1982.1</ele>
        <time>2014-01-31T10:43:01Z</time>
      </trkpt>
      <trkpt lat="45.68315" lon="6.22046">
        <ele>1985.7</ele>
        <time>2014-01-31T10:43:16Z</time>
      </trkpt>
      <trkpt lat="45.68318" lon="6.22054">
        <ele>1987.2</ele>
        <time>2014-01-31T10:43:31Z</time>
      </trkpt>
      <trkpt lat="45.68318" lon="6.22066">
        <ele>1989.4</ele>
        <time>2014-01-31T10:43:46Z</time>
      </trkpt>
      <trkpt lat="45.68323" lon="6.2209">
        <ele>1994.7</ele>
        <time>2014-01-31T10:44:16Z</time>
      </trkpt>
      <trkpt lat="45.68326" lon="6.22099">
        <ele>1998.6</ele>
        <time>2014-01-31T10:44:31Z</time>
      </trkpt>
      <trkpt lat="45.68331" lon="6.22092">
        <ele>2000.5</ele>
        <time>2014-01-31T10:44:46Z</time>
      </trkpt>
      <trkpt lat="45.68336" lon="6.22084">
        <ele>2003.6</ele>
        <time>2014-01-31T10:45:01Z</time>
      </trkpt>
      <trkpt lat="45.6834" lon="6.22078">
        <ele>2008.6</ele>
        <time>2014-01-31T10:45:31Z</time>
      </trkpt>
      <trkpt lat="45.68344" lon="6.22089">
        <ele>2010</ele>
        <time>2014-01-31T10:45:46Z</time>
      </trkpt>
      <trkpt lat="45.68348" lon="6.221">
        <ele>2012</ele>
        <time>2014-01-31T10:46:01Z</time>
      </trkpt>
      <trkpt lat="45.68347" lon="6.22108">
        <ele>2015.1</ele>
        <time>2014-01-31T10:46:16Z</time>
      </trkpt>
      <trkpt lat="45.6835" lon="6.22125">
        <ele>2020.5</ele>
        <time>2014-01-31T10:46:46Z</time>
      </trkpt>
      <trkpt lat="45.68356" lon="6.22121">
        <ele>2021.4</ele>
        <time>2014-01-31T10:47:01Z</time>
      </trkpt>
      <trkpt lat="45.6836" lon="6.22114">
        <ele>2024.6</ele>
        <time>2014-01-31T10:47:16Z</time>
      </trkpt>
      <trkpt lat="45.68365" lon="6.22106">
        <ele>2027.6</ele>
        <time>2014-01-31T10:47:31Z</time>
      </trkpt>
      <trkpt lat="45.68373" lon="6.22089">
        <ele>2032</ele>
        <time>2014-01-31T10:48:01Z</time>
      </trkpt>
      <trkpt lat="45.68375" lon="6.22088">
        <ele>2032.2</ele>
        <time>2014-01-31T10:48:16Z</time>
      </trkpt>
      <trkpt lat="45.68377" lon="6.22089">
        <ele>2031.9</ele>
        <time>2014-01-31T10:48:31Z</time>
      </trkpt>
      <trkpt lat="45.68378" lon="6.22089">
        <ele>2033</ele>
        <time>2014-01-31T10:48:46Z</time>
      </trkpt>
      <trkpt lat="45.68375" lon="6.22089">
        <ele>2031.5</ele>
        <time>2014-01-31T10:49:16Z</time>
      </trkpt>
      <trkpt lat="45.68375" lon="6.22089">
        <ele>2032.5</ele>
        <time>2014-01-31T10:49:31Z</time>
      </trkpt>
      <trkpt lat="45.68376" lon="6.22089">
        <ele>2032.7</ele>
        <time>2014-01-31T10:49:46Z</time>
      </trkpt>
      <trkpt lat="45.68376" lon="6.22087">
        <ele>2032.4</ele>
        <time>2014-01-31T10:50:01Z</time>
      </trkpt>
      <trkpt lat="45.68374" lon="6.22086">
        <ele>2032.3</ele>
        <time>2014-01-31T10:50:31Z</time>
      </trkpt>
      <trkpt lat="45.68374" lon="6.22086">
        <ele>2031.6</ele>
        <time>2014-01-31T10:50:46Z</time>
      </trkpt>
      <trkpt lat="45.68373" lon="6.22087">
        <ele>2032.3</ele>
        <time>2014-01-31T10:51:01Z</time>
      </trkpt>
      <trkpt lat="45.68373" lon="6.22086">
        <ele>2033</ele>
        <time>2014-01-31T10:51:16Z</time>
      </trkpt>
      <trkpt lat="45.68373" lon="6.22085">
        <ele>2031.3</ele>
        <time>2014-01-31T10:51:46Z</time>
      </trkpt>
      <trkpt lat="45.68373" lon="6.22085">
        <ele>2032.1</ele>
        <time>2014-01-31T10:52:01Z</time>
      </trkpt>
      <trkpt lat="45.68373" lon="6.22086">
        <ele>2031.6</ele>
        <time>2014-01-31T10:52:16Z</time>
      </trkpt>
      <trkpt lat="45.68374" lon="6.22086">
        <ele>2032.1</ele>
        <time>2014-01-31T10:52:31Z</time>
      </trkpt>
      <trkpt lat="45.68374" lon="6.22087">
        <ele>2032.4</ele>
        <time>2014-01-31T10:53:01Z</time>
      </trkpt>
      <trkpt lat="45.68373" lon="6.22086">
        <ele>2032.7</ele>
        <time>2014-01-31T10:53:16Z</time>
      </trkpt>
      <trkpt lat="45.68372" lon="6.22086">
        <ele>2031.9</ele>
        <time>2014-01-31T10:53:31Z</time>
      </trkpt>
      <trkpt lat="45.68371" lon="6.22087">
        <ele>2032</ele>
        <time>2014-01-31T10:53:46Z</time>
      </trkpt>
      <trkpt lat="45.68371" lon="6.22087">
        <ele>2033.1</ele>
        <time>2014-01-31T10:54:16Z</time>
      </trkpt>
      <trkpt lat="45.68371" lon="6.22087">
        <ele>2032.6</ele>
        <time>2014-01-31T10:54:31Z</time>
      </trkpt>
      <trkpt lat="45.6837" lon="6.22087">
        <ele>2032.2</ele>
        <time>2014-01-31T10:54:46Z</time>
      </trkpt>
      <trkpt lat="45.68369" lon="6.22087">
        <ele>2032.5</ele>
        <time>2014-01-31T10:55:01Z</time>
      </trkpt>
      <trkpt lat="45.6837" lon="6.22089">
        <ele>2032.9</ele>
        <time>2014-01-31T10:55:31Z</time>
      </trkpt>
      <trkpt lat="45.68373" lon="6.22091">
        <ele>2032.6</ele>
        <time>2014-01-31T10:55:46Z</time>
      </trkpt>
      <trkpt lat="45.68375" lon="6.22103">
        <ele>2034.7</ele>
        <time>2014-01-31T10:56:01Z</time>
      </trkpt>
      <trkpt lat="45.68376" lon="6.22112">
        <ele>2034.8</ele>
        <time>2014-01-31T10:56:16Z</time>
      </trkpt>
      <trkpt lat="45.6838" lon="6.22137">
        <ele>2040.2</ele>
        <time>2014-01-31T10:56:46Z</time>
      </trkpt>
      <trkpt lat="45.68381" lon="6.22147">
        <ele>2043.1</ele>
        <time>2014-01-31T10:57:01Z</time>
      </trkpt>
      <trkpt lat="45.68383" lon="6.22155">
        <ele>2045.7</ele>
        <time>2014-01-31T10:57:16Z</time>
      </trkpt>
      <trkpt lat="45.68386" lon="6.22164">
        <ele>2048.1</ele>
        <time>2014-01-31T10:57:31Z</time>
      </trkpt>
      <trkpt lat="45.68396" lon="6.22176">
        <ele>2051.1</ele>
        <time>2014-01-31T10:58:01Z</time>
      </trkpt>
      <trkpt lat="45.68402" lon="6.22181">
        <ele>2054.1</ele>
        <time>2014-01-31T10:58:16Z</time>
      </trkpt>
      <trkpt lat="45.68409" lon="6.22184">
        <ele>2055.6</ele>
        <time>2014-01-31T10:58:31Z</time>
      </trkpt>
      <trkpt lat="45.68415" lon="6.22191">
        <ele>2056.9</ele>
        <time>2014-01-31T10:58:46Z</time>
      </trkpt>
      <trkpt lat="45.68427" lon="6.22203">
        <ele>2061.1</ele>
        <time>2014-01-31T10:59:16Z</time>
      </trkpt>
      <trkpt lat="45.68434" lon="6.22208">
        <ele>2063.8</ele>
        <time>2014-01-31T10:59:31Z</time>
      </trkpt>
      <trkpt lat="45.6844" lon="6.22213">
        <ele>2065.7</ele>
        <time>2014-01-31T10:59:46Z</time>
      </trkpt>
      <trkpt lat="45.68449" lon="6.22218">
        <ele>2067.7</ele>
        <time>2014-01-31T11:00:01Z</time>
      </trkpt>
      <trkpt lat="45.68464" lon="6.2223">
        <ele>2070.7</ele>
        <time>2014-01-31T11:00:31Z</time>
      </trkpt>
      <trkpt lat="45.68471" lon="6.22236">
        <ele>2071.9</ele>
        <time>2014-01-31T11:00:46Z</time>
      </trkpt>
      <trkpt lat="45.68477" lon="6.22238">
        <ele>2073.5</ele>
        <time>2014-01-31T11:01:01Z</time>
      </trkpt>
      <trkpt lat="45.68484" lon="6.22239">
        <ele>2074.9</ele>
        <time>2014-01-31T11:01:16Z</time>
      </trkpt>
      <trkpt lat="45.68502" lon="6.22246">
        <ele>2078.4</ele>
        <time>2014-01-31T11:01:46Z</time>
      </trkpt>
      <trkpt lat="45.6851" lon="6.2225">
        <ele>2079.9</ele>
        <time>2014-01-31T11:02:01Z</time>
      </trkpt>
      <trkpt lat="45.68519" lon="6.22251">
        <ele>2081.7</ele>
        <time>2014-01-31T11:02:16Z</time>
      </trkpt>
      <trkpt lat="45.68529" lon="6.22254">
        <ele>2082.8</ele>
        <time>2014-01-31T11:02:31Z</time>
      </trkpt>
      <trkpt lat="45.68547" lon="6.22255">
        <ele>2086.9</ele>
        <time>2014-01-31T11:03:01Z</time>
      </trkpt>
      <trkpt lat="45.68555" lon="6.22255">
        <ele>2089.5</ele>
        <time>2014-01-31T11:03:16Z</time>
      </trkpt>
      <trkpt lat="45.68563" lon="6.22253">
        <ele>2090.6</ele>
        <time>2014-01-31T11:03:31Z</time>
      </trkpt>
      <trkpt lat="45.68571" lon="6.22254">
        <ele>2092.9</ele>
        <time>2014-01-31T11:03:46Z</time>
      </trkpt>
      <trkpt lat="45.68589" lon="6.22247">
        <ele>2096.1</ele>
        <time>2014-01-31T11:04:16Z</time>
      </trkpt>
      <trkpt lat="45.68598" lon="6.22245">
        <ele>2097.9</ele>
        <time>2014-01-31T11:04:31Z</time>
      </trkpt>
      <trkpt lat="45.68607" lon="6.22239">
        <ele>2099.7</ele>
        <time>2014-01-31T11:04:46Z</time>
      </trkpt>
      <trkpt lat="45.68615" lon="6.22229">
        <ele>2100.6</ele>
        <time>2014-01-31T11:05:01Z</time>
      </trkpt>
      <trkpt lat="45.68631" lon="6.22225">
        <ele>2103.7</ele>
        <time>2014-01-31T11:05:31Z</time>
      </trkpt>
      <trkpt lat="45.68641" lon="6.22224">
        <ele>2105.8</ele>
        <time>2014-01-31T11:05:46Z</time>
      </trkpt>
      <trkpt lat="45.6865" lon="6.22224">
        <ele>2107.6</ele>
        <time>2014-01-31T11:06:01Z</time>
      </trkpt>
      <trkpt lat="45.68659" lon="6.22227">
        <ele>2110</ele>
        <time>2014-01-31T11:06:16Z</time>
      </trkpt>
      <trkpt lat="45.68658" lon="6.22226">
        <ele>2111.8</ele>
        <time>2014-01-31T11:06:46Z</time>
      </trkpt>
      <trkpt lat="45.68666" lon="6.22226">
        <ele>2112.1</ele>
        <time>2014-01-31T11:07:01Z</time>
      </trkpt>
      <trkpt lat="45.68676" lon="6.22225">
        <ele>2114.4</ele>
        <time>2014-01-31T11:07:16Z</time>
      </trkpt>
      <trkpt lat="45.68683" lon="6.22225">
        <ele>2116.9</ele>
        <time>2014-01-31T11:07:31Z</time>
      </trkpt>
      <trkpt lat="45.68695" lon="6.2222">
        <ele>2122.1</ele>
        <time>2014-01-31T11:08:01Z</time>
      </trkpt>
      <trkpt lat="45.68701" lon="6.22216">
        <ele>2124.8</ele>
        <time>2014-01-31T11:08:16Z</time>
      </trkpt>
      <trkpt lat="45.68708" lon="6.22213">
        <ele>2126.1</ele>
        <time>2014-01-31T11:08:31Z</time>
      </trkpt>
      <trkpt lat="45.68714" lon="6.22211">
        <ele>2129.6</ele>
        <time>2014-01-31T11:08:46Z</time>
      </trkpt>
      <trkpt lat="45.68728" lon="6.22209">
        <ele>2133.3</ele>
        <time>2014-01-31T11:09:16Z</time>
      </trkpt>
      <trkpt lat="45.6873" lon="6.22208">
        <ele>2135.8</ele>
        <time>2014-01-31T11:09:31Z</time>
      </trkpt>
      <trkpt lat="45.6873" lon="6.22213">
        <ele>2137.1</ele>
        <time>2014-01-31T11:09:46Z</time>
      </trkpt>
      <trkpt lat="45.68727" lon="6.2222">
        <ele>2139.5</ele>
        <time>2014-01-31T11:10:01Z</time>
      </trkpt>
      <trkpt lat="45.68733" lon="6.22224">
        <ele>2142.4</ele>
        <time>2014-01-31T11:10:31Z</time>
      </trkpt>
      <trkpt lat="45.68735" lon="6.22224">
        <ele>2144.2</ele>
        <time>2014-01-31T11:10:46Z</time>
      </trkpt>
      <trkpt lat="45.68733" lon="6.22232">
        <ele>2145.1</ele>
        <time>2014-01-31T11:11:01Z</time>
      </trkpt>
      <trkpt lat="45.6873" lon="6.2224">
        <ele>2145.9</ele>
        <time>2014-01-31T11:11:16Z</time>
      </trkpt>
      <trkpt lat="45.68737" lon="6.2224">
        <ele>2150.1</ele>
        <time>2014-01-31T11:11:46Z</time>
      </trkpt>
      <trkpt lat="45.68743" lon="6.22238">
        <ele>2152.1</ele>
        <time>2014-01-31T11:12:01Z</time>
      </trkpt>
      <trkpt lat="45.68749" lon="6.22237">
        <ele>2154.9</ele>
        <time>2014-01-31T11:12:16Z</time>
      </trkpt>
      <trkpt lat="45.68751" lon="6.22239">
        <ele>2156.2</ele>
        <time>2014-01-31T11:12:31Z</time>
      </trkpt>
      <trkpt lat="45.68748" lon="6.2224">
        <ele>2157.8</ele>
        <time>2014-01-31T11:13:01Z</time>
      </trkpt>
      <trkpt lat="45.68751" lon="6.22239">
        <ele>2158.5</ele>
        <time>2014-01-31T11:13:16Z</time>
      </trkpt>
      <trkpt lat="45.68752" lon="6.22241">
        <ele>2158.2</ele>
        <time>2014-01-31T11:13:31Z</time>
      </trkpt>
      <trkpt lat="45.68753" lon="6.22241">
        <ele>2159.2</ele>
        <time>2014-01-31T11:13:46Z</time>
      </trkpt>
      <trkpt lat="45.68759" lon="6.22242">
        <ele>2162.4</ele>
        <time>2014-01-31T11:14:16Z</time>
      </trkpt>
      <trkpt lat="45.6876" lon="6.22241">
        <ele>2162.9</ele>
        <time>2014-01-31T11:14:31Z</time>
      </trkpt>
      <trkpt lat="45.68761" lon="6.22242">
        <ele>2162.6</ele>
        <time>2014-01-31T11:14:46Z</time>
      </trkpt>
      <trkpt lat="45.68761" lon="6.22243">
        <ele>2162.2</ele>
        <time>2014-01-31T11:15:01Z</time>
      </trkpt>
      <trkpt lat="45.68761" lon="6.22244">
        <ele>2163.4</ele>
        <time>2014-01-31T11:15:31Z</time>
      </trkpt>
      <trkpt lat="45.68761" lon="6.22243">
        <ele>2162</ele>
        <time>2014-01-31T11:15:46Z</time>
      </trkpt>
      <trkpt lat="45.6876" lon="6.22244">
        <ele>2161.4</ele>
        <time>2014-01-31T11:16:01Z</time>
      </trkpt>
      <trkpt lat="45.68758" lon="6.22242">
        <ele>2162.1</ele>
        <time>2014-01-31T11:16:16Z</time>
      </trkpt>
      <trkpt lat="45.68758" lon="6.22239">
        <ele>2160.7</ele>
        <time>2014-01-31T11:16:46Z</time>
      </trkpt>
      <trkpt lat="45.68758" lon="6.22239">
        <ele>2161.1</ele>
        <time>2014-01-31T11:17:01Z</time>
      </trkpt>
      <trkpt lat="45.68758" lon="6.22239">
        <ele>2161</ele>
        <time>2014-01-31T11:17:16Z</time>
      </trkpt>
      <trkpt lat="45.68759" lon="6.22239">
        <ele>2160.9</ele>
        <time>2014-01-31T11:17:31Z</time>
      </trkpt>
      <trkpt lat="45.68759" lon="6.22238">
        <ele>2161.2</ele>
        <time>2014-01-31T11:18:01Z</time>
      </trkpt>
      <trkpt lat="45.6876" lon="6.22238">
        <ele>2160.4</ele>
        <time>2014-01-31T11:18:16Z</time>
      </trkpt>
      <trkpt lat="45.68758" lon="6.2224">
        <ele>2161.7</ele>
        <time>2014-01-31T11:18:31Z</time>
      </trkpt>
      <trkpt lat="45.68759" lon="6.2224">
        <ele>2161.7</ele>
        <time>2014-01-31T11:18:46Z</time>
      </trkpt>
      <trkpt lat="45.68761" lon="6.2224">
        <ele>2160.6</ele>
        <time>2014-01-31T11:19:16Z</time>
      </trkpt>
      <trkpt lat="45.6876" lon="6.22238">
        <ele>2159.6</ele>
        <time>2014-01-31T11:19:31Z</time>
      </trkpt>
      <trkpt lat="45.68759" lon="6.22238">
        <ele>2160.4</ele>
        <time>2014-01-31T11:19:46Z</time>
      </trkpt>
      <trkpt lat="45.68759" lon="6.22237">
        <ele>2161.8</ele>
        <time>2014-01-31T11:20:01Z</time>
      </trkpt>
      <trkpt lat="45.68758" lon="6.2224">
        <ele>2161.1</ele>
        <time>2014-01-31T11:20:31Z</time>
      </trkpt>
      <trkpt lat="45.68758" lon="6.2224">
        <ele>2159.9</ele>
        <time>2014-01-31T11:20:46Z</time>
      </trkpt>
      <trkpt lat="45.68758" lon="6.2224">
        <ele>2160.5</ele>
        <time>2014-01-31T11:21:01Z</time>
      </trkpt>
      <trkpt lat="45.68758" lon="6.22238">
        <ele>2159.7</ele>
        <time>2014-01-31T11:21:16Z</time>
      </trkpt>
      <trkpt lat="45.68759" lon="6.2224">
        <ele>2159.1</ele>
        <time>2014-01-31T11:21:46Z</time>
      </trkpt>
      <trkpt lat="45.68759" lon="6.22241">
        <ele>2159.4</ele>
        <time>2014-01-31T11:22:01Z</time>
      </trkpt>
      <trkpt lat="45.68759" lon="6.22241">
        <ele>2159.1</ele>
        <time>2014-01-31T11:22:16Z</time>
      </trkpt>
      <trkpt lat="45.68759" lon="6.22241">
        <ele>2159.8</ele>
        <time>2014-01-31T11:22:31Z</time>
      </trkpt>
      <trkpt lat="45.68758" lon="6.22241">
        <ele>2159.2</ele>
        <time>2014-01-31T11:23:01Z</time>
      </trkpt>
      <trkpt lat="45.68758" lon="6.22241">
        <ele>2158.2</ele>
        <time>2014-01-31T11:23:16Z</time>
      </trkpt>
      <trkpt lat="45.68758" lon="6.22241">
        <ele>2159.1</ele>
        <time>2014-01-31T11:23:31Z</time>
      </trkpt>
      <trkpt lat="45.68758" lon="6.2224">
        <ele>2158.5</ele>
        <time>2014-01-31T11:23:46Z</time>
      </trkpt>
      <trkpt lat="45.68758" lon="6.2224">
        <ele>2158.5</ele>
        <time>2014-01-31T11:24:16Z</time>
      </trkpt>
      <trkpt lat="45.68757" lon="6.2224">
        <ele>2158.1</ele>
        <time>2014-01-31T11:24:31Z</time>
      </trkpt>
      <trkpt lat="45.68757" lon="6.2224">
        <ele>2157.8</ele>
        <time>2014-01-31T11:24:46Z</time>
      </trkpt>
      <trkpt lat="45.68757" lon="6.2224">
        <ele>2157.9</ele>
        <time>2014-01-31T11:25:01Z</time>
      </trkpt>
      <trkpt lat="45.68757" lon="6.22241">
        <ele>2157.6</ele>
        <time>2014-01-31T11:25:31Z</time>
      </trkpt>
      <trkpt lat="45.68757" lon="6.22241">
        <ele>2157.7</ele>
        <time>2014-01-31T11:25:46Z</time>
      </trkpt>
      <trkpt lat="45.68757" lon="6.22241">
        <ele>2158.5</ele>
        <time>2014-01-31T11:26:01Z</time>
      </trkpt>
      <trkpt lat="45.68757" lon="6.22241">
        <ele>2158.2</ele>
        <time>2014-01-31T11:26:16Z</time>
      </trkpt>
      <trkpt lat="45.68757" lon="6.22241">
        <ele>2157.6</ele>
        <time>2014-01-31T11:26:46Z</time>
      </trkpt>
      <trkpt lat="45.68757" lon="6.22242">
        <ele>2157.4</ele>
        <time>2014-01-31T11:27:01Z</time>
      </trkpt>
      <trkpt lat="45.68757" lon="6.22241">
        <ele>2158.3</ele>
        <time>2014-01-31T11:27:16Z</time>
      </trkpt>
      <trkpt lat="45.68756" lon="6.22241">
        <ele>2158.5</ele>
        <time>2014-01-31T11:27:31Z</time>
      </trkpt>
      <trkpt lat="45.68755" lon="6.22241">
        <ele>2157.7</ele>
        <time>2014-01-31T11:28:01Z</time>
      </trkpt>
      <trkpt lat="45.68755" lon="6.22241">
        <ele>2158.3</ele>
        <time>2014-01-31T11:28:16Z</time>
      </trkpt>
      <trkpt lat="45.68755" lon="6.22241">
        <ele>2157.2</ele>
        <time>2014-01-31T11:28:31Z</time>
      </trkpt>
      <trkpt lat="45.68754" lon="6.22241">
        <ele>2158.3</ele>
        <time>2014-01-31T11:28:46Z</time>
      </trkpt>
      <trkpt lat="45.68754" lon="6.2224">
        <ele>2158.1</ele>
        <time>2014-01-31T11:29:16Z</time>
      </trkpt>
      <trkpt lat="45.68754" lon="6.2224">
        <ele>2158</ele>
        <time>2014-01-31T11:29:31Z</time>
      </trkpt>
      <trkpt lat="45.68754" lon="6.2224">
        <ele>2157.4</ele>
        <time>2014-01-31T11:29:46Z</time>
      </trkpt>
      <trkpt lat="45.68755" lon="6.2224">
        <ele>2157.4</ele>
        <time>2014-01-31T11:30:01Z</time>
      </trkpt>
      <trkpt lat="45.68755" lon="6.2224">
        <ele>2157.2</ele>
        <time>2014-01-31T11:30:31Z</time>
      </trkpt>
      <trkpt lat="45.68755" lon="6.2224">
        <ele>2156.4</ele>
        <time>2014-01-31T11:30:46Z</time>
      </trkpt>
      <trkpt lat="45.68755" lon="6.2224">
        <ele>2156.4</ele>
        <time>2014-01-31T11:31:01Z</time>
      </trkpt>
      <trkpt lat="45.68754" lon="6.2224">
        <ele>2156.8</ele>
        <time>2014-01-31T11:31:16Z</time>
      </trkpt>
      <trkpt lat="45.68754" lon="6.2224">
        <ele>2157</ele>
        <time>2014-01-31T11:31:46Z</time>
      </trkpt>
      <trkpt lat="45.68754" lon="6.2224">
        <ele>2157.2</ele>
        <time>2014-01-31T11:32:01Z</time>
      </trkpt>
      <trkpt lat="45.68754" lon="6.22241">
        <ele>2157</ele>
        <time>2014-01-31T11:32:16Z</time>
      </trkpt>
      <trkpt lat="45.68755" lon="6.22241">
        <ele>2157.8</ele>
        <time>2014-01-31T11:32:31Z</time>
      </trkpt>
      <trkpt lat="45.68756" lon="6.22245">
        <ele>2157.4</ele>
        <time>2014-01-31T11:33:01Z</time>
      </trkpt>
      <trkpt lat="45.68757" lon="6.22249">
        <ele>2157.4</ele>
        <time>2014-01-31T11:33:16Z</time>
      </trkpt>
      <trkpt lat="45.68757" lon="6.22245">
        <ele>2156.1</ele>
        <time>2014-01-31T11:33:31Z</time>
      </trkpt>
      <trkpt lat="45.68757" lon="6.22242">
        <ele>2154.9</ele>
        <time>2014-01-31T11:33:46Z</time>
      </trkpt>
      <trkpt lat="45.68757" lon="6.2224">
        <ele>2152.4</ele>
        <time>2014-01-31T11:34:16Z</time>
      </trkpt>
      <trkpt lat="45.68756" lon="6.2224">
        <ele>2149.7</ele>
        <time>2014-01-31T11:34:31Z</time>
      </trkpt>
      <trkpt lat="45.68756" lon="6.2224">
        <ele>2148.7</ele>
        <time>2014-01-31T11:34:46Z</time>
      </trkpt>
      <trkpt lat="45.68755" lon="6.2224">
        <ele>2148.8</ele>
        <time>2014-01-31T11:35:01Z</time>
      </trkpt>
      <trkpt lat="45.68755" lon="6.22241">
        <ele>2145.2</ele>
        <time>2014-01-31T11:35:31Z</time>
      </trkpt>
      <trkpt lat="45.68755" lon="6.22241">
        <ele>2142.9</ele>
        <time>2014-01-31T11:35:46Z</time>
      </trkpt>
      <trkpt lat="45.68755" lon="6.22241">
        <ele>2142.9</ele>
        <time>2014-01-31T11:36:01Z</time>
      </trkpt>
      <trkpt lat="45.68755" lon="6.2224">
        <ele>2141.5</ele>
        <time>2014-01-31T11:36:16Z</time>
      </trkpt>
      <trkpt lat="45.68754" lon="6.22238">
        <ele>2136.9</ele>
        <time>2014-01-31T11:36:46Z</time>
      </trkpt>
      <trkpt lat="45.68753" lon="6.22238">
        <ele>2135.8</ele>
        <time>2014-01-31T11:37:01Z</time>
      </trkpt>
      <trkpt lat="45.68754" lon="6.22237">
        <ele>2135.5</ele>
        <time>2014-01-31T11:37:16Z</time>
      </trkpt>
      <trkpt lat="45.68756" lon="6.22236">
        <ele>2134.1</ele>
        <time>2014-01-31T11:37:31Z</time>
      </trkpt>
      <trkpt lat="45.68757" lon="6.22234">
        <ele>2129.8</ele>
        <time>2014-01-31T11:38:01Z</time>
      </trkpt>
      <trkpt lat="45.68758" lon="6.22234">
        <ele>2129</ele>
        <time>2014-01-31T11:38:16Z</time>
      </trkpt>
      <trkpt lat="45.68758" lon="6.22234">
        <ele>2127.3</ele>
        <time>2014-01-31T11:38:31Z</time>
      </trkpt>
      <trkpt lat="45.68758" lon="6.22235">
        <ele>2126.3</ele>
        <time>2014-01-31T11:38:46Z</time>
      </trkpt>
      <trkpt lat="45.68759" lon="6.22239">
        <ele>2122.5</ele>
        <time>2014-01-31T11:39:16Z</time>
      </trkpt>
      <trkpt lat="45.6876" lon="6.2224">
        <ele>2122.2</ele>
        <time>2014-01-31T11:39:31Z</time>
      </trkpt>
      <trkpt lat="45.6876" lon="6.22241">
        <ele>2120.3</ele>
        <time>2014-01-31T11:39:46Z</time>
      </trkpt>
      <trkpt lat="45.68761" lon="6.22242">
        <ele>2119.1</ele>
        <time>2014-01-31T11:40:01Z</time>
      </trkpt>
      <trkpt lat="45.68759" lon="6.22243">
        <ele>2116.4</ele>
        <time>2014-01-31T11:40:31Z</time>
      </trkpt>
      <trkpt lat="45.68759" lon="6.22243">
        <ele>2114.9</ele>
        <time>2014-01-31T11:40:46Z</time>
      </trkpt>
      <trkpt lat="45.68757" lon="6.22241">
        <ele>2114.7</ele>
        <time>2014-01-31T11:41:01Z</time>
      </trkpt>
      <trkpt lat="45.68758" lon="6.2224">
        <ele>2112.1</ele>
        <time>2014-01-31T11:41:16Z</time>
      </trkpt>
      <trkpt lat="45.68756" lon="6.22241">
        <ele>2109.7</ele>
        <time>2014-01-31T11:41:46Z</time>
      </trkpt>
      <trkpt lat="45.68754" lon="6.22238">
        <ele>2106.8</ele>
        <time>2014-01-31T11:42:01Z</time>
      </trkpt>
      <trkpt lat="45.68753" lon="6.22234">
        <ele>2104.7</ele>
        <time>2014-01-31T11:42:16Z</time>
      </trkpt>
      <trkpt lat="45.68752" lon="6.22234">
        <ele>2103.4</ele>
        <time>2014-01-31T11:42:31Z</time>
      </trkpt>
      <trkpt lat="45.6875" lon="6.22232">
        <ele>2098.2</ele>
        <time>2014-01-31T11:43:01Z</time>
      </trkpt>
      <trkpt lat="45.68749" lon="6.22228">
        <ele>2095.5</ele>
        <time>2014-01-31T11:43:16Z</time>
      </trkpt>
      <trkpt lat="45.68749" lon="6.22229">
        <ele>2093.8</ele>
        <time>2014-01-31T11:43:31Z</time>
      </trkpt>
      <trkpt lat="45.68748" lon="6.22229">
        <ele>2091.1</ele>
        <time>2014-01-31T11:43:46Z</time>
      </trkpt>
      <trkpt lat="45.6875" lon="6.2223">
        <ele>2087.6</ele>
        <time>2014-01-31T11:44:16Z</time>
      </trkpt>
      <trkpt lat="45.68749" lon="6.2223">
        <ele>2086.3</ele>
        <time>2014-01-31T11:44:31Z</time>
      </trkpt>
      <trkpt lat="45.68749" lon="6.22229">
        <ele>2085.7</ele>
        <time>2014-01-31T11:44:46Z</time>
      </trkpt>
      <trkpt lat="45.68748" lon="6.22227">
        <ele>2084.7</ele>
        <time>2014-01-31T11:45:01Z</time>
      </trkpt>
      <trkpt lat="45.6875" lon="6.22226">
        <ele>2081.4</ele>
        <time>2014-01-31T11:45:31Z</time>
      </trkpt>
      <trkpt lat="45.68749" lon="6.22226">
        <ele>2080.5</ele>
        <time>2014-01-31T11:45:46Z</time>
      </trkpt>
      <trkpt lat="45.68748" lon="6.22226">
        <ele>2080</ele>
        <time>2014-01-31T11:46:01Z</time>
      </trkpt>
      <trkpt lat="45.68748" lon="6.22225">
        <ele>2078.7</ele>
        <time>2014-01-31T11:46:16Z</time>
      </trkpt>
      <trkpt lat="45.68747" lon="6.22225">
        <ele>2075.9</ele>
        <time>2014-01-31T11:46:46Z</time>
      </trkpt>
      <trkpt lat="45.68746" lon="6.22223">
        <ele>2073.4</ele>
        <time>2014-01-31T11:47:01Z</time>
      </trkpt>
      <trkpt lat="45.68746" lon="6.22223">
        <ele>2072.2</ele>
        <time>2014-01-31T11:47:16Z</time>
      </trkpt>
      <trkpt lat="45.68741" lon="6.22225">
        <ele>2069.9</ele>
        <time>2014-01-31T11:47:31Z</time>
      </trkpt>
      <trkpt lat="45.6873" lon="6.22237">
        <ele>2059.3</ele>
        <time>2014-01-31T11:48:01Z</time>
      </trkpt>
      <trkpt lat="45.68732" lon="6.22227">
        <ele>2055.4</ele>
        <time>2014-01-31T11:48:16Z</time>
      </trkpt>
      <trkpt lat="45.68732" lon="6.22227">
        <ele>2053.8</ele>
        <time>2014-01-31T11:48:31Z</time>
      </trkpt>
      <trkpt lat="45.68732" lon="6.22223">
        <ele>2053</ele>
        <time>2014-01-31T11:48:46Z</time>
      </trkpt>
      <trkpt lat="45.68698" lon="6.22215">
        <ele>2030.5</ele>
        <time>2014-01-31T11:49:16Z</time>
      </trkpt>
      <trkpt lat="45.68696" lon="6.22214">
        <ele>2026.7</ele>
        <time>2014-01-31T11:49:31Z</time>
      </trkpt>
      <trkpt lat="45.68696" lon="6.22214">
        <ele>2026.2</ele>
        <time>2014-01-31T11:49:46Z</time>
      </trkpt>
      <trkpt lat="45.68695" lon="6.22214">
        <ele>2025.1</ele>
        <time>2014-01-31T11:50:01Z</time>
      </trkpt>
      <trkpt lat="45.68696" lon="6.22215">
        <ele>2022.8</ele>
        <time>2014-01-31T11:50:31Z</time>
      </trkpt>
      <trkpt lat="45.68696" lon="6.22215">
        <ele>2021</ele>
        <time>2014-01-31T11:50:46Z</time>
      </trkpt>
      <trkpt lat="45.68696" lon="6.22214">
        <ele>2018.8</ele>
        <time>2014-01-31T11:51:01Z</time>
      </trkpt>
      <trkpt lat="45.68696" lon="6.22214">
        <ele>2017.9</ele>
        <time>2014-01-31T11:51:16Z</time>
      </trkpt>
      <trkpt lat="45.68696" lon="6.22215">
        <ele>2015.2</ele>
        <time>2014-01-31T11:51:46Z</time>
      </trkpt>
      <trkpt lat="45.68697" lon="6.22216">
        <ele>2014.1</ele>
        <time>2014-01-31T11:52:01Z</time>
      </trkpt>
      <trkpt lat="45.68697" lon="6.22216">
        <ele>2012.8</ele>
        <time>2014-01-31T11:52:16Z</time>
      </trkpt>
      <trkpt lat="45.68697" lon="6.22216">
        <ele>2011.1</ele>
        <time>2014-01-31T11:52:31Z</time>
      </trkpt>
      <trkpt lat="45.68696" lon="6.22213">
        <ele>2008.5</ele>
        <time>2014-01-31T11:53:01Z</time>
      </trkpt>
      <trkpt lat="45.68658" lon="6.22211">
        <ele>1999.3</ele>
        <time>2014-01-31T11:53:16Z</time>
      </trkpt>
      <trkpt lat="45.68623" lon="6.22215">
        <ele>1985.6</ele>
        <time>2014-01-31T11:53:31Z</time>
      </trkpt>
      <trkpt lat="45.68616" lon="6.22221">
        <ele>1983</ele>
        <time>2014-01-31T11:53:46Z</time>
      </trkpt>
      <trkpt lat="45.68622" lon="6.22228">
        <ele>1977.8</ele>
        <time>2014-01-31T11:54:16Z</time>
      </trkpt>
      <trkpt lat="45.68621" lon="6.22229">
        <ele>1977</ele>
        <time>2014-01-31T11:54:31Z</time>
      </trkpt>
      <trkpt lat="45.6862" lon="6.22226">
        <ele>1975.5</ele>
        <time>2014-01-31T11:54:46Z</time>
      </trkpt>
      <trkpt lat="45.68621" lon="6.22225">
        <ele>1974.1</ele>
        <time>2014-01-31T11:55:01Z</time>
      </trkpt>
      <trkpt lat="45.68624" lon="6.22228">
        <ele>1972</ele>
        <time>2014-01-31T11:55:31Z</time>
      </trkpt>
      <trkpt lat="45.68635" lon="6.22234">
        <ele>1968.1</ele>
        <time>2014-01-31T11:55:46Z</time>
      </trkpt>
      <trkpt lat="45.68631" lon="6.22233">
        <ele>1964.3</ele>
        <time>2014-01-31T11:56:01Z</time>
      </trkpt>
      <trkpt lat="45.68627" lon="6.22233">
        <ele>1961.9</ele>
        <time>2014-01-31T11:56:16Z</time>
      </trkpt>
      <trkpt lat="45.68624" lon="6.22264">
        <ele>1948.9</ele>
        <time>2014-01-31T11:56:46Z</time>
      </trkpt>
      <trkpt lat="45.68623" lon="6.22325">
        <ele>1922.2</ele>
        <time>2014-01-31T11:57:01Z</time>
      </trkpt>
      <trkpt lat="45.68618" lon="6.22331">
        <ele>1913.6</ele>
        <time>2014-01-31T11:57:16Z</time>
      </trkpt>
      <trkpt lat="45.68589" lon="6.22367">
        <ele>1905.1</ele>
        <time>2014-01-31T11:57:31Z</time>
      </trkpt>
      <trkpt lat="45.68579" lon="6.22366">
        <ele>1900</ele>
        <time>2014-01-31T11:58:02Z</time>
      </trkpt>
      <trkpt lat="45.68597" lon="6.22423">
        <ele>1894.6</ele>
        <time>2014-01-31T11:58:17Z</time>
      </trkpt>
      <trkpt lat="45.6862" lon="6.22426">
        <ele>1882.8</ele>
        <time>2014-01-31T11:58:32Z</time>
      </trkpt>
      <trkpt lat="45.68646" lon="6.22491">
        <ele>1869.8</ele>
        <time>2014-01-31T11:58:47Z</time>
      </trkpt>
      <trkpt lat="45.68714" lon="6.2254">
        <ele>1837.3</ele>
        <time>2014-01-31T11:59:17Z</time>
      </trkpt>
      <trkpt lat="45.68745" lon="6.22558">
        <ele>1818.9</ele>
        <time>2014-01-31T11:59:32Z</time>
      </trkpt>
      <trkpt lat="45.68771" lon="6.22572">
        <ele>1805</ele>
        <time>2014-01-31T11:59:48Z</time>
      </trkpt>
      <trkpt lat="45.688" lon="6.2255">
        <ele>1802</ele>
        <time>2014-01-31T12:00:20Z</time>
      </trkpt>
      <trkpt lat="45.68801" lon="6.22559">
        <ele>1801.2</ele>
        <time>2014-01-31T12:00:35Z</time>
      </trkpt>
      <trkpt lat="45.68855" lon="6.22554">
        <ele>1791.1</ele>
        <time>2014-01-31T12:00:50Z</time>
      </trkpt>
      <trkpt lat="45.6889" lon="6.22558">
        <ele>1787.5</ele>
        <time>2014-01-31T12:01:05Z</time>
      </trkpt>
      <trkpt lat="45.6898" lon="6.22543">
        <ele>1777.1</ele>
        <time>2014-01-31T12:01:35Z</time>
      </trkpt>
      <trkpt lat="45.69003" lon="6.22539">
        <ele>1773.5</ele>
        <time>2014-01-31T12:01:50Z</time>
      </trkpt>
      <trkpt lat="45.69034" lon="6.2253">
        <ele>1770.6</ele>
        <time>2014-01-31T12:02:05Z</time>
      </trkpt>
      <trkpt lat="45.69073" lon="6.22535">
        <ele>1763.7</ele>
        <time>2014-01-31T12:02:20Z</time>
      </trkpt>
      <trkpt lat="45.69123" lon="6.22495">
        <ele>1752.2</ele>
        <time>2014-01-31T12:02:50Z</time>
      </trkpt>
      <trkpt lat="45.69121" lon="6.22489">
        <ele>1747.9</ele>
        <time>2014-01-31T12:03:05Z</time>
      </trkpt>
      <trkpt lat="45.69133" lon="6.22486">
        <ele>1744.9</ele>
        <time>2014-01-31T12:03:20Z</time>
      </trkpt>
      <trkpt lat="45.69133" lon="6.22486">
        <ele>1745.3</ele>
        <time>2014-01-31T12:03:35Z</time>
      </trkpt>
      <trkpt lat="45.69134" lon="6.22487">
        <ele>1744.1</ele>
        <time>2014-01-31T12:04:05Z</time>
      </trkpt>
      <trkpt lat="45.69136" lon="6.22498">
        <ele>1744.8</ele>
        <time>2014-01-31T12:04:20Z</time>
      </trkpt>
      <trkpt lat="45.69137" lon="6.22502">
        <ele>1745</ele>
        <time>2014-01-31T12:04:35Z</time>
      </trkpt>
      <trkpt lat="45.69138" lon="6.22501">
        <ele>1744.6</ele>
        <time>2014-01-31T12:04:50Z</time>
      </trkpt>
      <trkpt lat="45.6914" lon="6.22501">
        <ele>1744.8</ele>
        <time>2014-01-31T12:05:20Z</time>
      </trkpt>
      <trkpt lat="45.69141" lon="6.22511">
        <ele>1744.9</ele>
        <time>2014-01-31T12:05:35Z</time>
      </trkpt>
      <trkpt lat="45.6914" lon="6.22511">
        <ele>1743.4</ele>
        <time>2014-01-31T12:05:50Z</time>
      </trkpt>
      <trkpt lat="45.69136" lon="6.22508">
        <ele>1743.5</ele>
        <time>2014-01-31T12:06:05Z</time>
      </trkpt>
      <trkpt lat="45.69138" lon="6.2251">
        <ele>1745.2</ele>
        <time>2014-01-31T12:06:35Z</time>
      </trkpt>
      <trkpt lat="45.6914" lon="6.22512">
        <ele>1744.9</ele>
        <time>2014-01-31T12:06:50Z</time>
      </trkpt>
      <trkpt lat="45.6914" lon="6.22511">
        <ele>1744.2</ele>
        <time>2014-01-31T12:07:05Z</time>
      </trkpt>
      <trkpt lat="45.69141" lon="6.22513">
        <ele>1744.6</ele>
        <time>2014-01-31T12:07:20Z</time>
      </trkpt>
      <trkpt lat="45.69143" lon="6.22516">
        <ele>1744.7</ele>
        <time>2014-01-31T12:07:50Z</time>
      </trkpt>
      <trkpt lat="45.69138" lon="6.22517">
        <ele>1744.6</ele>
        <time>2014-01-31T12:08:05Z</time>
      </trkpt>
      <trkpt lat="45.69136" lon="6.22522">
        <ele>1745.2</ele>
        <time>2014-01-31T12:08:20Z</time>
      </trkpt>
      <trkpt lat="45.69133" lon="6.22524">
        <ele>1746.3</ele>
        <time>2014-01-31T12:08:35Z</time>
      </trkpt>
      <trkpt lat="45.69135" lon="6.22528">
        <ele>1747.5</ele>
        <time>2014-01-31T12:09:05Z</time>
      </trkpt>
      <trkpt lat="45.69138" lon="6.2253">
        <ele>1747.5</ele>
        <time>2014-01-31T12:09:20Z</time>
      </trkpt>
      <trkpt lat="45.69142" lon="6.22534">
        <ele>1747.1</ele>
        <time>2014-01-31T12:09:35Z</time>
      </trkpt>
      <trkpt lat="45.6914" lon="6.22534">
        <ele>1747.6</ele>
        <time>2014-01-31T12:09:50Z</time>
      </trkpt>
      <trkpt lat="45.69135" lon="6.22538">
        <ele>1746.7</ele>
        <time>2014-01-31T12:10:20Z</time>
      </trkpt>
      <trkpt lat="45.6914" lon="6.22555">
        <ele>1746.4</ele>
        <time>2014-01-31T12:10:35Z</time>
      </trkpt>
      <trkpt lat="45.69154" lon="6.22565">
        <ele>1746.6</ele>
        <time>2014-01-31T12:10:50Z</time>
      </trkpt>
      <trkpt lat="45.69158" lon="6.22566">
        <ele>1748.1</ele>
        <time>2014-01-31T12:11:05Z</time>
      </trkpt>
      <trkpt lat="45.69204" lon="6.22601">
        <ele>1743.9</ele>
        <time>2014-01-31T12:11:35Z</time>
      </trkpt>
      <trkpt lat="45.6921" lon="6.22607">
        <ele>1743.5</ele>
        <time>2014-01-31T12:11:50Z</time>
      </trkpt>
      <trkpt lat="45.69207" lon="6.22605">
        <ele>1742.7</ele>
        <time>2014-01-31T12:12:05Z</time>
      </trkpt>
      <trkpt lat="45.69208" lon="6.22604">
        <ele>1742.6</ele>
        <time>2014-01-31T12:12:20Z</time>
      </trkpt>
      <trkpt lat="45.69211" lon="6.22607">
        <ele>1742.1</ele>
        <time>2014-01-31T12:12:50Z</time>
      </trkpt>
      <trkpt lat="45.69212" lon="6.22609">
        <ele>1741.9</ele>
        <time>2014-01-31T12:13:05Z</time>
      </trkpt>
      <trkpt lat="45.69212" lon="6.2261">
        <ele>1742.3</ele>
        <time>2014-01-31T12:13:20Z</time>
      </trkpt>
      <trkpt lat="45.69213" lon="6.2261">
        <ele>1742.6</ele>
        <time>2014-01-31T12:13:35Z</time>
      </trkpt>
      <trkpt lat="45.69215" lon="6.22611">
        <ele>1741.5</ele>
        <time>2014-01-31T12:14:05Z</time>
      </trkpt>
      <trkpt lat="45.69216" lon="6.22612">
        <ele>1742.5</ele>
        <time>2014-01-31T12:14:20Z</time>
      </trkpt>
      <trkpt lat="45.69246" lon="6.22626">
        <ele>1731</ele>
        <time>2014-01-31T12:14:38Z</time>
      </trkpt>
      <trkpt lat="45.69296" lon="6.22616">
        <ele>1709</ele>
        <time>2014-01-31T12:15:10Z</time>
      </trkpt>
      <trkpt lat="45.6931" lon="6.22619">
        <ele>1701</ele>
        <time>2014-01-31T12:15:26Z</time>
      </trkpt>
      <trkpt lat="45.69317" lon="6.22619">
        <ele>1701</ele>
        <time>2014-01-31T12:15:42Z</time>
      </trkpt>
      <trkpt lat="45.69319" lon="6.22619">
        <ele>1701</ele>
        <time>2014-01-31T12:16:14Z</time>
      </trkpt>
      <trkpt lat="45.69318" lon="6.22619">
        <ele>1699</ele>
        <time>2014-01-31T12:16:30Z</time>
      </trkpt>
      <trkpt lat="45.69332" lon="6.22598">
        <ele>1697</ele>
        <time>2014-01-31T12:16:46Z</time>
      </trkpt>
      <trkpt lat="45.69313" lon="6.22572">
        <ele>1679.5</ele>
        <time>2014-01-31T12:17:18Z</time>
      </trkpt>
      <trkpt lat="45.6931" lon="6.22574">
        <ele>1678.3</ele>
        <time>2014-01-31T12:17:33Z</time>
      </trkpt>
      <trkpt lat="45.69301" lon="6.22558">
        <ele>1670.6</ele>
        <time>2014-01-31T12:17:48Z</time>
      </trkpt>
      <trkpt lat="45.69303" lon="6.22534">
        <ele>1661</ele>
        <time>2014-01-31T12:18:03Z</time>
      </trkpt>
      <trkpt lat="45.6933" lon="6.2253">
        <ele>1648.7</ele>
        <time>2014-01-31T12:18:33Z</time>
      </trkpt>
      <trkpt lat="45.69362" lon="6.22514">
        <ele>1641.6</ele>
        <time>2014-01-31T12:18:48Z</time>
      </trkpt>
      <trkpt lat="45.6937" lon="6.22492">
        <ele>1626.5</ele>
        <time>2014-01-31T12:19:03Z</time>
      </trkpt>
      <trkpt lat="45.6937" lon="6.22487">
        <ele>1626</ele>
        <time>2014-01-31T12:19:18Z</time>
      </trkpt>
      <trkpt lat="45.69374" lon="6.2249">
        <ele>1625.5</ele>
        <time>2014-01-31T12:19:48Z</time>
      </trkpt>
      <trkpt lat="45.69386" lon="6.22475">
        <ele>1620.1</ele>
        <time>2014-01-31T12:20:03Z</time>
      </trkpt>
      <trkpt lat="45.69387" lon="6.22431">
        <ele>1603.9</ele>
        <time>2014-01-31T12:20:18Z</time>
      </trkpt>
      <trkpt lat="45.69385" lon="6.22368">
        <ele>1582.7</ele>
        <time>2014-01-31T12:20:33Z</time>
      </trkpt>
      <trkpt lat="45.69407" lon="6.22336">
        <ele>1564</ele>
        <time>2014-01-31T12:21:03Z</time>
      </trkpt>
      <trkpt lat="45.69409" lon="6.22334">
        <ele>1564.4</ele>
        <time>2014-01-31T12:21:18Z</time>
      </trkpt>
      <trkpt lat="45.69409" lon="6.22332">
        <ele>1564.4</ele>
        <time>2014-01-31T12:21:33Z</time>
      </trkpt>
      <trkpt lat="45.69408" lon="6.22334">
        <ele>1563.7</ele>
        <time>2014-01-31T12:21:48Z</time>
      </trkpt>
      <trkpt lat="45.69415" lon="6.22322">
        <ele>1562.6</ele>
        <time>2014-01-31T12:22:18Z</time>
      </trkpt>
      <trkpt lat="45.69424" lon="6.22298">
        <ele>1546.3</ele>
        <time>2014-01-31T12:22:33Z</time>
      </trkpt>
      <trkpt lat="45.6942" lon="6.22283">
        <ele>1539</ele>
        <time>2014-01-31T12:22:48Z</time>
      </trkpt>
      <trkpt lat="45.69447" lon="6.22269">
        <ele>1529.1</ele>
        <time>2014-01-31T12:23:03Z</time>
      </trkpt>
      <trkpt lat="45.69436" lon="6.22252">
        <ele>1525.5</ele>
        <time>2014-01-31T12:23:33Z</time>
      </trkpt>
      <trkpt lat="45.69437" lon="6.22228">
        <ele>1520.3</ele>
        <time>2014-01-31T12:23:48Z</time>
      </trkpt>
      <trkpt lat="45.6944" lon="6.22221">
        <ele>1519.6</ele>
        <time>2014-01-31T12:24:03Z</time>
      </trkpt>
      <trkpt lat="45.69439" lon="6.22222">
        <ele>1519.2</ele>
        <time>2014-01-31T12:24:18Z</time>
      </trkpt>
      <trkpt lat="45.69446" lon="6.22213">
        <ele>1515.2</ele>
        <time>2014-01-31T12:24:48Z</time>
      </trkpt>
      <trkpt lat="45.69448" lon="6.22208">
        <ele>1508.6</ele>
        <time>2014-01-31T12:25:03Z</time>
      </trkpt>
      <trkpt lat="45.69434" lon="6.22188">
        <ele>1503.4</ele>
        <time>2014-01-31T12:25:18Z</time>
      </trkpt>
      <trkpt lat="45.69452" lon="6.22165">
        <ele>1491.8</ele>
        <time>2014-01-31T12:25:33Z</time>
      </trkpt>
      <trkpt lat="45.69467" lon="6.22141">
        <ele>1478.1</ele>
        <time>2014-01-31T12:26:03Z</time>
      </trkpt>
      <trkpt lat="45.69469" lon="6.22141">
        <ele>1477.1</ele>
        <time>2014-01-31T12:26:18Z</time>
      </trkpt>
      <trkpt lat="45.69471" lon="6.22141">
        <ele>1478.5</ele>
        <time>2014-01-31T12:26:33Z</time>
      </trkpt>
      <trkpt lat="45.69464" lon="6.22125">
        <ele>1471</ele>
        <time>2014-01-31T12:26:48Z</time>
      </trkpt>
      <trkpt lat="45.69446" lon="6.22086">
        <ele>1452</ele>
        <time>2014-01-31T12:27:20Z</time>
      </trkpt>
      <trkpt lat="45.69433" lon="6.22066">
        <ele>1442</ele>
        <time>2014-01-31T12:27:36Z</time>
      </trkpt>
      <trkpt lat="45.69437" lon="6.22048">
        <ele>1432</ele>
        <time>2014-01-31T12:27:52Z</time>
      </trkpt>
      <trkpt lat="45.69432" lon="6.22039">
        <ele>1430</ele>
        <time>2014-01-31T12:28:24Z</time>
      </trkpt>
      <trkpt lat="45.69442" lon="6.22023">
        <ele>1424</ele>
        <time>2014-01-31T12:28:40Z</time>
      </trkpt>
      <trkpt lat="45.6945" lon="6.22009">
        <ele>1417</ele>
        <time>2014-01-31T12:28:56Z</time>
      </trkpt>
      <trkpt lat="45.69457" lon="6.2199">
        <ele>1415</ele>
        <time>2014-01-31T12:29:28Z</time>
      </trkpt>
      <trkpt lat="45.69456" lon="6.21977">
        <ele>1411</ele>
        <time>2014-01-31T12:29:44Z</time>
      </trkpt>
      <trkpt lat="45.69461" lon="6.21958">
        <ele>1403</ele>
        <time>2014-01-31T12:30:00Z</time>
      </trkpt>
      <trkpt lat="45.6946" lon="6.21905">
        <ele>1388</ele>
        <time>2014-01-31T12:30:32Z</time>
      </trkpt>
      <trkpt lat="45.6947" lon="6.21874">
        <ele>1374</ele>
        <time>2014-01-31T12:30:48Z</time>
      </trkpt>
      <trkpt lat="45.69482" lon="6.21869">
        <ele>1374</ele>
        <time>2014-01-31T12:31:04Z</time>
      </trkpt>
      <trkpt lat="45.69498" lon="6.21868">
        <ele>1372</ele>
        <time>2014-01-31T12:31:36Z</time>
      </trkpt>
      <trkpt lat="45.69489" lon="6.21871">
        <ele>1372</ele>
        <time>2014-01-31T12:31:52Z</time>
      </trkpt>
      <trkpt lat="45.69468" lon="6.21878">
        <ele>1373</ele>
        <time>2014-01-31T12:32:08Z</time>
      </trkpt>
      <trkpt lat="45.69487" lon="6.21875">
        <ele>1373</ele>
        <time>2014-01-31T12:32:41Z</time>
      </trkpt>
      <trkpt lat="45.69515" lon="6.21868">
        <ele>1372</ele>
        <time>2014-01-31T12:32:59Z</time>
      </trkpt>
      <trkpt lat="45.69511" lon="6.21874">
        <ele>1373</ele>
        <time>2014-01-31T12:33:15Z</time>
      </trkpt>
      <trkpt lat="45.69491" lon="6.21872">
        <ele>1372.9</ele>
        <time>2014-01-31T12:33:46Z</time>
      </trkpt>
      <trkpt lat="45.6947" lon="6.21874">
        <ele>1373</ele>
        <time>2014-01-31T12:34:03Z</time>
      </trkpt>
      <trkpt lat="45.69457" lon="6.21874">
        <ele>1373</ele>
        <time>2014-01-31T12:34:19Z</time>
      </trkpt>
      <trkpt lat="45.69446" lon="6.21877">
        <ele>1373</ele>
        <time>2014-01-31T12:34:51Z</time>
      </trkpt>
      <trkpt lat="45.69463" lon="6.21873">
        <ele>1373</ele>
        <time>2014-01-31T12:35:07Z</time>
      </trkpt>
      <trkpt lat="45.69476" lon="6.21868">
        <ele>1372</ele>
        <time>2014-01-31T12:35:23Z</time>
      </trkpt>
      <trkpt lat="45.6949" lon="6.21845">
        <ele>1369</ele>
        <time>2014-01-31T12:35:55Z</time>
      </trkpt>
      <trkpt lat="45.69487" lon="6.21842">
        <ele>1366.2</ele>
        <time>2014-01-31T12:36:10Z</time>
      </trkpt>
      <trkpt lat="45.69484" lon="6.21841">
        <ele>1364</ele>
        <time>2014-01-31T12:36:28Z</time>
      </trkpt>
      <trkpt lat="45.69526" lon="6.21735">
        <ele>1347.5</ele>
        <time>2014-01-31T12:36:59Z</time>
      </trkpt>
      <trkpt lat="45.6954" lon="6.21645">
        <ele>1331.6</ele>
        <time>2014-01-31T12:37:14Z</time>
      </trkpt>
      <trkpt lat="45.69532" lon="6.21597">
        <ele>1321.2</ele>
        <time>2014-01-31T12:37:29Z</time>
      </trkpt>
      <trkpt lat="45.6954" lon="6.21592">
        <ele>1320.5</ele>
        <time>2014-01-31T12:37:44Z</time>
      </trkpt>
      <trkpt lat="45.69551" lon="6.21589">
        <ele>1321.7</ele>
        <time>2014-01-31T12:38:14Z</time>
      </trkpt>
      <trkpt lat="45.69554" lon="6.21588">
        <ele>1319.5</ele>
        <time>2014-01-31T12:38:29Z</time>
      </trkpt>
      <trkpt lat="45.69558" lon="6.21586">
        <ele>1318.7</ele>
        <time>2014-01-31T12:38:44Z</time>
      </trkpt>
      <trkpt lat="45.69556" lon="6.21588">
        <ele>1319.2</ele>
        <time>2014-01-31T12:38:59Z</time>
      </trkpt>
      <trkpt lat="45.69551" lon="6.2159">
        <ele>1319.8</ele>
        <time>2014-01-31T12:39:29Z</time>
      </trkpt>
      <trkpt lat="45.6955" lon="6.21593">
        <ele>1320.2</ele>
        <time>2014-01-31T12:39:44Z</time>
      </trkpt>
      <trkpt lat="45.69552" lon="6.21595">
        <ele>1319.3</ele>
        <time>2014-01-31T12:39:59Z</time>
      </trkpt>
      <trkpt lat="45.6955" lon="6.21597">
        <ele>1319.9</ele>
        <time>2014-01-31T12:40:14Z</time>
      </trkpt>
      <trkpt lat="45.69543" lon="6.21599">
        <ele>1319.6</ele>
        <time>2014-01-31T12:40:44Z</time>
      </trkpt>
      <trkpt lat="45.69545" lon="6.21599">
        <ele>1319.2</ele>
        <time>2014-01-31T12:40:59Z</time>
      </trkpt>
      <trkpt lat="45.69544" lon="6.21599">
        <ele>1318.7</ele>
        <time>2014-01-31T12:41:14Z</time>
      </trkpt>
      <trkpt lat="45.69542" lon="6.216">
        <ele>1318.9</ele>
        <time>2014-01-31T12:41:29Z</time>
      </trkpt>
      <trkpt lat="45.69537" lon="6.21605">
        <ele>1318.1</ele>
        <time>2014-01-31T12:41:59Z</time>
      </trkpt>
      <trkpt lat="45.69539" lon="6.21601">
        <ele>1319.1</ele>
        <time>2014-01-31T12:42:14Z</time>
      </trkpt>
      <trkpt lat="45.6954" lon="6.216">
        <ele>1318.4</ele>
        <time>2014-01-31T12:42:29Z</time>
      </trkpt>
      <trkpt lat="45.69543" lon="6.21598">
        <ele>1317.6</ele>
        <time>2014-01-31T12:42:44Z</time>
      </trkpt>
      <trkpt lat="45.69539" lon="6.21594">
        <ele>1318.2</ele>
        <time>2014-01-31T12:43:14Z</time>
      </trkpt>
      <trkpt lat="45.69534" lon="6.21594">
        <ele>1318.2</ele>
        <time>2014-01-31T12:43:29Z</time>
      </trkpt>
      <trkpt lat="45.69532" lon="6.21594">
        <ele>1317.4</ele>
        <time>2014-01-31T12:43:44Z</time>
      </trkpt>
      <trkpt lat="45.69534" lon="6.21595">
        <ele>1318.7</ele>
        <time>2014-01-31T12:43:59Z</time>
      </trkpt>
      <trkpt lat="45.69537" lon="6.21595">
        <ele>1317.5</ele>
        <time>2014-01-31T12:44:29Z</time>
      </trkpt>
      <trkpt lat="45.69538" lon="6.21596">
        <ele>1318.5</ele>
        <time>2014-01-31T12:44:44Z</time>
      </trkpt>
      <trkpt lat="45.69539" lon="6.21594">
        <ele>1317.7</ele>
        <time>2014-01-31T12:44:59Z</time>
      </trkpt>
      <trkpt lat="45.6954" lon="6.21593">
        <ele>1317.3</ele>
        <time>2014-01-31T12:45:14Z</time>
      </trkpt>
      <trkpt lat="45.69539" lon="6.21592">
        <ele>1318.1</ele>
        <time>2014-01-31T12:45:44Z</time>
      </trkpt>
      <trkpt lat="45.69538" lon="6.21593">
        <ele>1317.5</ele>
        <time>2014-01-31T12:45:59Z</time>
      </trkpt>
      <trkpt lat="45.69537" lon="6.21593">
        <ele>1318.2</ele>
        <time>2014-01-31T12:46:14Z</time>
      </trkpt>
      <trkpt lat="45.69538" lon="6.21597">
        <ele>1318.1</ele>
        <time>2014-01-31T12:46:29Z</time>
      </trkpt>
      <trkpt lat="45.69536" lon="6.21598">
        <ele>1318.5</ele>
        <time>2014-01-31T12:46:59Z</time>
      </trkpt>
      <trkpt lat="45.69535" lon="6.21601">
        <ele>1317.7</ele>
        <time>2014-01-31T12:47:14Z</time>
      </trkpt>
      <trkpt lat="45.69535" lon="6.2161">
        <ele>1318.2</ele>
        <time>2014-01-31T12:47:29Z</time>
      </trkpt>
      <trkpt lat="45.69526" lon="6.21591">
        <ele>1318.6</ele>
        <time>2014-01-31T12:47:44Z</time>
      </trkpt>
      <trkpt lat="45.69538" lon="6.21589">
        <ele>1319</ele>
        <time>2014-01-31T12:48:14Z</time>
      </trkpt>
      <trkpt lat="45.69534" lon="6.21586">
        <ele>1319.2</ele>
        <time>2014-01-31T12:48:29Z</time>
      </trkpt>
      <trkpt lat="45.69532" lon="6.21584">
        <ele>1319.1</ele>
        <time>2014-01-31T12:48:44Z</time>
      </trkpt>
      <trkpt lat="45.69527" lon="6.21581">
        <ele>1320.2</ele>
        <time>2014-01-31T12:48:59Z</time>
      </trkpt>
      <trkpt lat="45.69515" lon="6.21573">
        <ele>1321.3</ele>
        <time>2014-01-31T12:49:29Z</time>
      </trkpt>
      <trkpt lat="45.69506" lon="6.2156">
        <ele>1321.6</ele>
        <time>2014-01-31T12:49:44Z</time>
      </trkpt>
      <trkpt lat="45.69501" lon="6.21553">
        <ele>1321.3</ele>
        <time>2014-01-31T12:49:59Z</time>
      </trkpt>
      <trkpt lat="45.6949" lon="6.21541">
        <ele>1324.9</ele>
        <time>2014-01-31T12:50:14Z</time>
      </trkpt>
      <trkpt lat="45.6947" lon="6.21517">
        <ele>1326.7</ele>
        <time>2014-01-31T12:50:44Z</time>
      </trkpt>
      <trkpt lat="45.69464" lon="6.21504">
        <ele>1327.4</ele>
        <time>2014-01-31T12:50:59Z</time>
      </trkpt>
      <trkpt lat="45.69455" lon="6.21494">
        <ele>1328.9</ele>
        <time>2014-01-31T12:51:14Z</time>
      </trkpt>
      <trkpt lat="45.69454" lon="6.21487">
        <ele>1329.5</ele>
        <time>2014-01-31T12:51:29Z</time>
      </trkpt>
      <trkpt lat="45.69438" lon="6.21466">
        <ele>1330.6</ele>
        <time>2014-01-31T12:51:59Z</time>
      </trkpt>
      <trkpt lat="45.69429" lon="6.21454">
        <ele>1332.5</ele>
        <time>2014-01-31T12:52:14Z</time>
      </trkpt>
      <trkpt lat="45.69422" lon="6.21441">
        <ele>1333.3</ele>
        <time>2014-01-31T12:52:29Z</time>
      </trkpt>
      <trkpt lat="45.69413" lon="6.21431">
        <ele>1335.1</ele>
        <time>2014-01-31T12:52:44Z</time>
      </trkpt>
      <trkpt lat="45.69387" lon="6.21409">
        <ele>1337.2</ele>
        <time>2014-01-31T12:53:14Z</time>
      </trkpt>
      <trkpt lat="45.6937" lon="6.21396">
        <ele>1339.2</ele>
        <time>2014-01-31T12:53:29Z</time>
      </trkpt>
      <trkpt lat="45.69359" lon="6.21392">
        <ele>1340</ele>
        <time>2014-01-31T12:53:44Z</time>
      </trkpt>
      <trkpt lat="45.69349" lon="6.21383">
        <ele>1340.6</ele>
        <time>2014-01-31T12:53:59Z</time>
      </trkpt>
      <trkpt lat="45.69335" lon="6.21362">
        <ele>1342.8</ele>
        <time>2014-01-31T12:54:29Z</time>
      </trkpt>
      <trkpt lat="45.69328" lon="6.21352">
        <ele>1344.5</ele>
        <time>2014-01-31T12:54:44Z</time>
      </trkpt>
      <trkpt lat="45.69319" lon="6.21342">
        <ele>1346.1</ele>
        <time>2014-01-31T12:54:59Z</time>
      </trkpt>
      <trkpt lat="45.69308" lon="6.21331">
        <ele>1345.6</ele>
        <time>2014-01-31T12:55:14Z</time>
      </trkpt>
      <trkpt lat="45.69281" lon="6.21309">
        <ele>1348.8</ele>
        <time>2014-01-31T12:55:44Z</time>
      </trkpt>
      <trkpt lat="45.69273" lon="6.21298">
        <ele>1350.2</ele>
        <time>2014-01-31T12:55:59Z</time>
      </trkpt>
      <trkpt lat="45.69265" lon="6.21288">
        <ele>1352.1</ele>
        <time>2014-01-31T12:56:14Z</time>
      </trkpt>
      <trkpt lat="45.6926" lon="6.21278">
        <ele>1353.3</ele>
        <time>2014-01-31T12:56:29Z</time>
      </trkpt>
      <trkpt lat="45.6925" lon="6.21253">
        <ele>1355</ele>
        <time>2014-01-31T12:56:59Z</time>
      </trkpt>
      <trkpt lat="45.69243" lon="6.21241">
        <ele>1356.4</ele>
        <time>2014-01-31T12:57:14Z</time>
      </trkpt>
      <trkpt lat="45.69235" lon="6.21226">
        <ele>1356.9</ele>
        <time>2014-01-31T12:57:29Z</time>
      </trkpt>
      <trkpt lat="45.69226" lon="6.21213">
        <ele>1357.5</ele>
        <time>2014-01-31T12:57:44Z</time>
      </trkpt>
      <trkpt lat="45.6921" lon="6.21219">
        <ele>1360.2</ele>
        <time>2014-01-31T12:58:14Z</time>
      </trkpt>
      <trkpt lat="45.69216" lon="6.21232">
        <ele>1361.5</ele>
        <time>2014-01-31T12:58:29Z</time>
      </trkpt>
      <trkpt lat="45.69225" lon="6.21245">
        <ele>1361.5</ele>
        <time>2014-01-31T12:58:44Z</time>
      </trkpt>
      <trkpt lat="45.6923" lon="6.21261">
        <ele>1363.1</ele>
        <time>2014-01-31T12:58:59Z</time>
      </trkpt>
      <trkpt lat="45.6924" lon="6.21291">
        <ele>1364.7</ele>
        <time>2014-01-31T12:59:29Z</time>
      </trkpt>
      <trkpt lat="45.69241" lon="6.21306">
        <ele>1367.2</ele>
        <time>2014-01-31T12:59:44Z</time>
      </trkpt>
      <trkpt lat="45.69242" lon="6.21324">
        <ele>1367.5</ele>
        <time>2014-01-31T12:59:59Z</time>
      </trkpt>
      <trkpt lat="45.69247" lon="6.21339">
        <ele>1369</ele>
        <time>2014-01-31T13:00:14Z</time>
      </trkpt>
      <trkpt lat="45.69265" lon="6.21368">
        <ele>1370.9</ele>
        <time>2014-01-31T13:00:44Z</time>
      </trkpt>
      <trkpt lat="45.69275" lon="6.21379">
        <ele>1371.8</ele>
        <time>2014-01-31T13:00:59Z</time>
      </trkpt>
      <trkpt lat="45.69271" lon="6.21387">
        <ele>1374.9</ele>
        <time>2014-01-31T13:01:14Z</time>
      </trkpt>
      <trkpt lat="45.69263" lon="6.21383">
        <ele>1376.3</ele>
        <time>2014-01-31T13:01:29Z</time>
      </trkpt>
      <trkpt lat="45.69246" lon="6.21363">
        <ele>1378.6</ele>
        <time>2014-01-31T13:01:59Z</time>
      </trkpt>
      <trkpt lat="45.69235" lon="6.21353">
        <ele>1380.8</ele>
        <time>2014-01-31T13:02:14Z</time>
      </trkpt>
      <trkpt lat="45.69228" lon="6.21344">
        <ele>1382.8</ele>
        <time>2014-01-31T13:02:29Z</time>
      </trkpt>
      <trkpt lat="45.69223" lon="6.21334">
        <ele>1383.2</ele>
        <time>2014-01-31T13:02:44Z</time>
      </trkpt>
      <trkpt lat="45.69211" lon="6.21312">
        <ele>1385.9</ele>
        <time>2014-01-31T13:03:14Z</time>
      </trkpt>
      <trkpt lat="45.69202" lon="6.21301">
        <ele>1388.1</ele>
        <time>2014-01-31T13:03:29Z</time>
      </trkpt>
      <trkpt lat="45.69191" lon="6.21294">
        <ele>1388.6</ele>
        <time>2014-01-31T13:03:44Z</time>
      </trkpt>
      <trkpt lat="45.69182" lon="6.21284">
        <ele>1390.3</ele>
        <time>2014-01-31T13:03:59Z</time>
      </trkpt>
      <trkpt lat="45.69163" lon="6.21266">
        <ele>1392.8</ele>
        <time>2014-01-31T13:04:29Z</time>
      </trkpt>
      <trkpt lat="45.69153" lon="6.21256">
        <ele>1393.8</ele>
        <time>2014-01-31T13:04:44Z</time>
      </trkpt>
      <trkpt lat="45.69143" lon="6.21247">
        <ele>1394.2</ele>
        <time>2014-01-31T13:04:59Z</time>
      </trkpt>
      <trkpt lat="45.69132" lon="6.21241">
        <ele>1398</ele>
        <time>2014-01-31T13:05:14Z</time>
      </trkpt>
      <trkpt lat="45.69113" lon="6.21235">
        <ele>1402.8</ele>
        <time>2014-01-31T13:05:44Z</time>
      </trkpt>
      <trkpt lat="45.69114" lon="6.21234">
        <ele>1403.5</ele>
        <time>2014-01-31T13:05:59Z</time>
      </trkpt>
      <trkpt lat="45.69113" lon="6.21233">
        <ele>1403.5</ele>
        <time>2014-01-31T13:06:14Z</time>
      </trkpt>
      <trkpt lat="45.69113" lon="6.21237">
        <ele>1403.4</ele>
        <time>2014-01-31T13:06:29Z</time>
      </trkpt>
      <trkpt lat="45.691" lon="6.21236">
        <ele>1405</ele>
        <time>2014-01-31T13:06:59Z</time>
      </trkpt>
      <trkpt lat="45.69088" lon="6.21234">
        <ele>1407.5</ele>
        <time>2014-01-31T13:07:14Z</time>
      </trkpt>
      <trkpt lat="45.69079" lon="6.21233">
        <ele>1409.5</ele>
        <time>2014-01-31T13:07:29Z</time>
      </trkpt>
      <trkpt lat="45.69069" lon="6.21241">
        <ele>1412.8</ele>
        <time>2014-01-31T13:07:44Z</time>
      </trkpt>
      <trkpt lat="45.6905" lon="6.21243">
        <ele>1416.7</ele>
        <time>2014-01-31T13:08:14Z</time>
      </trkpt>
      <trkpt lat="45.69037" lon="6.21229">
        <ele>1418.4</ele>
        <time>2014-01-31T13:08:29Z</time>
      </trkpt>
      <trkpt lat="45.69026" lon="6.21221">
        <ele>1419.3</ele>
        <time>2014-01-31T13:08:44Z</time>
      </trkpt>
      <trkpt lat="45.69013" lon="6.21211">
        <ele>1420.9</ele>
        <time>2014-01-31T13:08:59Z</time>
      </trkpt>
      <trkpt lat="45.68989" lon="6.21188">
        <ele>1423.9</ele>
        <time>2014-01-31T13:09:29Z</time>
      </trkpt>
      <trkpt lat="45.68977" lon="6.21177">
        <ele>1425.9</ele>
        <time>2014-01-31T13:09:44Z</time>
      </trkpt>
      <trkpt lat="45.68967" lon="6.21167">
        <ele>1426.5</ele>
        <time>2014-01-31T13:09:59Z</time>
      </trkpt>
      <trkpt lat="45.68955" lon="6.21158">
        <ele>1427.5</ele>
        <time>2014-01-31T13:10:14Z</time>
      </trkpt>
      <trkpt lat="45.68929" lon="6.21148">
        <ele>1430.6</ele>
        <time>2014-01-31T13:10:44Z</time>
      </trkpt>
      <trkpt lat="45.68917" lon="6.21146">
        <ele>1430.8</ele>
        <time>2014-01-31T13:10:59Z</time>
      </trkpt>
      <trkpt lat="45.68903" lon="6.21145">
        <ele>1432.2</ele>
        <time>2014-01-31T13:11:14Z</time>
      </trkpt>
      <trkpt lat="45.68891" lon="6.21143">
        <ele>1432.9</ele>
        <time>2014-01-31T13:11:29Z</time>
      </trkpt>
      <trkpt lat="45.68871" lon="6.21132">
        <ele>1437.4</ele>
        <time>2014-01-31T13:11:59Z</time>
      </trkpt>
      <trkpt lat="45.68859" lon="6.21128">
        <ele>1438.8</ele>
        <time>2014-01-31T13:12:14Z</time>
      </trkpt>
      <trkpt lat="45.68849" lon="6.2112">
        <ele>1440.8</ele>
        <time>2014-01-31T13:12:29Z</time>
      </trkpt>
      <trkpt lat="45.68838" lon="6.21109">
        <ele>1440</ele>
        <time>2014-01-31T13:12:44Z</time>
      </trkpt>
      <trkpt lat="45.68834" lon="6.21085">
        <ele>1444.8</ele>
        <time>2014-01-31T13:13:14Z</time>
      </trkpt>
      <trkpt lat="45.68832" lon="6.21073">
        <ele>1447.3</ele>
        <time>2014-01-31T13:13:29Z</time>
      </trkpt>
      <trkpt lat="45.68823" lon="6.21075">
        <ele>1449.5</ele>
        <time>2014-01-31T13:13:44Z</time>
      </trkpt>
      <trkpt lat="45.68812" lon="6.21077">
        <ele>1450.3</ele>
        <time>2014-01-31T13:13:59Z</time>
      </trkpt>
      <trkpt lat="45.6879" lon="6.21071">
        <ele>1456.6</ele>
        <time>2014-01-31T13:14:29Z</time>
      </trkpt>
      <trkpt lat="45.68781" lon="6.21067">
        <ele>1457.8</ele>
        <time>2014-01-31T13:14:44Z</time>
      </trkpt>
      <trkpt lat="45.68771" lon="6.21066">
        <ele>1459.8</ele>
        <time>2014-01-31T13:14:59Z</time>
      </trkpt>
      <trkpt lat="45.68763" lon="6.21065">
        <ele>1463.7</ele>
        <time>2014-01-31T13:15:14Z</time>
      </trkpt>
      <trkpt lat="45.68746" lon="6.21057">
        <ele>1467.5</ele>
        <time>2014-01-31T13:15:44Z</time>
      </trkpt>
      <trkpt lat="45.68736" lon="6.21051">
        <ele>1469.6</ele>
        <time>2014-01-31T13:15:59Z</time>
      </trkpt>
      <trkpt lat="45.68728" lon="6.21046">
        <ele>1470.9</ele>
        <time>2014-01-31T13:16:14Z</time>
      </trkpt>
      <trkpt lat="45.68718" lon="6.21039">
        <ele>1473.4</ele>
        <time>2014-01-31T13:16:29Z</time>
      </trkpt>
      <trkpt lat="45.68697" lon="6.21021">
        <ele>1476.6</ele>
        <time>2014-01-31T13:16:59Z</time>
      </trkpt>
      <trkpt lat="45.68686" lon="6.21012">
        <ele>1477.8</ele>
        <time>2014-01-31T13:17:14Z</time>
      </trkpt>
      <trkpt lat="45.68673" lon="6.21004">
        <ele>1478.2</ele>
        <time>2014-01-31T13:17:29Z</time>
      </trkpt>
      <trkpt lat="45.6866" lon="6.20998">
        <ele>1480.3</ele>
        <time>2014-01-31T13:17:44Z</time>
      </trkpt>
      <trkpt lat="45.6864" lon="6.2098">
        <ele>1484.9</ele>
        <time>2014-01-31T13:18:14Z</time>
      </trkpt>
      <trkpt lat="45.6863" lon="6.20974">
        <ele>1485.7</ele>
        <time>2014-01-31T13:18:29Z</time>
      </trkpt>
      <trkpt lat="45.68622" lon="6.20964">
        <ele>1488.3</ele>
        <time>2014-01-31T13:18:44Z</time>
      </trkpt>
      <trkpt lat="45.68613" lon="6.20955">
        <ele>1488.9</ele>
        <time>2014-01-31T13:18:59Z</time>
      </trkpt>
      <trkpt lat="45.686" lon="6.20947">
        <ele>1489.9</ele>
        <time>2014-01-31T13:19:29Z</time>
      </trkpt>
      <trkpt lat="45.68598" lon="6.20946">
        <ele>1490.3</ele>
        <time>2014-01-31T13:19:44Z</time>
      </trkpt>
      <trkpt lat="45.68598" lon="6.20947">
        <ele>1490.6</ele>
        <time>2014-01-31T13:19:59Z</time>
      </trkpt>
      <trkpt lat="45.68601" lon="6.20944">
        <ele>1490.8</ele>
        <time>2014-01-31T13:20:14Z</time>
      </trkpt>
      <trkpt lat="45.686" lon="6.20946">
        <ele>1491.7</ele>
        <time>2014-01-31T13:20:44Z</time>
      </trkpt>
      <trkpt lat="45.68598" lon="6.20949">
        <ele>1491</ele>
        <time>2014-01-31T13:20:59Z</time>
      </trkpt>
      <trkpt lat="45.68594" lon="6.20955">
        <ele>1491</ele>
        <time>2014-01-31T13:21:14Z</time>
      </trkpt>
      <trkpt lat="45.68593" lon="6.20957">
        <ele>1490.4</ele>
        <time>2014-01-31T13:21:29Z</time>
      </trkpt>
      <trkpt lat="45.68596" lon="6.20949">
        <ele>1490.2</ele>
        <time>2014-01-31T13:21:59Z</time>
      </trkpt>
      <trkpt lat="45.68595" lon="6.20949">
        <ele>1490.5</ele>
        <time>2014-01-31T13:22:14Z</time>
      </trkpt>
      <trkpt lat="45.68594" lon="6.20953">
        <ele>1490.4</ele>
        <time>2014-01-31T13:22:29Z</time>
      </trkpt>
      <trkpt lat="45.68595" lon="6.20949">
        <ele>1489.4</ele>
        <time>2014-01-31T13:22:44Z</time>
      </trkpt>
      <trkpt lat="45.68596" lon="6.20947">
        <ele>1489</ele>
        <time>2014-01-31T13:23:16Z</time>
      </trkpt>
      <trkpt lat="45.68596" lon="6.20946">
        <ele>1489.5</ele>
        <time>2014-01-31T13:23:31Z</time>
      </trkpt>
      <trkpt lat="45.68595" lon="6.2095">
        <ele>1489.6</ele>
        <time>2014-01-31T13:23:46Z</time>
      </trkpt>
      <trkpt lat="45.68599" lon="6.20952">
        <ele>1489.7</ele>
        <time>2014-01-31T13:24:16Z</time>
      </trkpt>
      <trkpt lat="45.68599" lon="6.20953">
        <ele>1489.7</ele>
        <time>2014-01-31T13:24:31Z</time>
      </trkpt>
      <trkpt lat="45.686" lon="6.20954">
        <ele>1488.8</ele>
        <time>2014-01-31T13:24:46Z</time>
      </trkpt>
      <trkpt lat="45.68602" lon="6.20954">
        <ele>1489.5</ele>
        <time>2014-01-31T13:25:01Z</time>
      </trkpt>
      <trkpt lat="45.68601" lon="6.20952">
        <ele>1488.9</ele>
        <time>2014-01-31T13:25:31Z</time>
      </trkpt>
      <trkpt lat="45.686" lon="6.2095">
        <ele>1489.5</ele>
        <time>2014-01-31T13:25:46Z</time>
      </trkpt>
      <trkpt lat="45.686" lon="6.20949">
        <ele>1489.8</ele>
        <time>2014-01-31T13:26:01Z</time>
      </trkpt>
      <trkpt lat="45.68599" lon="6.20948">
        <ele>1489.2</ele>
        <time>2014-01-31T13:26:16Z</time>
      </trkpt>
      <trkpt lat="45.68599" lon="6.20946">
        <ele>1489.5</ele>
        <time>2014-01-31T13:26:46Z</time>
      </trkpt>
      <trkpt lat="45.68598" lon="6.20945">
        <ele>1488.8</ele>
        <time>2014-01-31T13:27:01Z</time>
      </trkpt>
      <trkpt lat="45.68598" lon="6.20945">
        <ele>1488.2</ele>
        <time>2014-01-31T13:27:16Z</time>
      </trkpt>
      <trkpt lat="45.68599" lon="6.20945">
        <ele>1488.6</ele>
        <time>2014-01-31T13:27:31Z</time>
      </trkpt>
      <trkpt lat="45.68598" lon="6.20944">
        <ele>1488.6</ele>
        <time>2014-01-31T13:28:01Z</time>
      </trkpt>
      <trkpt lat="45.68599" lon="6.20944">
        <ele>1488.3</ele>
        <time>2014-01-31T13:28:16Z</time>
      </trkpt>
      <trkpt lat="45.68599" lon="6.20944">
        <ele>1488.7</ele>
        <time>2014-01-31T13:28:31Z</time>
      </trkpt>
      <trkpt lat="45.68599" lon="6.20943">
        <ele>1488.9</ele>
        <time>2014-01-31T13:28:46Z</time>
      </trkpt>
      <trkpt lat="45.68598" lon="6.20943">
        <ele>1488.6</ele>
        <time>2014-01-31T13:29:16Z</time>
      </trkpt>
      <trkpt lat="45.686" lon="6.20942">
        <ele>1488.9</ele>
        <time>2014-01-31T13:29:31Z</time>
      </trkpt>
      <trkpt lat="45.68603" lon="6.20941">
        <ele>1489.2</ele>
        <time>2014-01-31T13:29:46Z</time>
      </trkpt>
      <trkpt lat="45.68607" lon="6.20936">
        <ele>1488.4</ele>
        <time>2014-01-31T13:30:01Z</time>
      </trkpt>
      <trkpt lat="45.68609" lon="6.20933">
        <ele>1488.2</ele>
        <time>2014-01-31T13:30:31Z</time>
      </trkpt>
      <trkpt lat="45.68607" lon="6.20936">
        <ele>1488.1</ele>
        <time>2014-01-31T13:30:46Z</time>
      </trkpt>
      <trkpt lat="45.68604" lon="6.2094">
        <ele>1488</ele>
        <time>2014-01-31T13:31:01Z</time>
      </trkpt>
      <trkpt lat="45.68603" lon="6.20942">
        <ele>1487.9</ele>
        <time>2014-01-31T13:31:16Z</time>
      </trkpt>
      <trkpt lat="45.68604" lon="6.20942">
        <ele>1488.3</ele>
        <time>2014-01-31T13:31:46Z</time>
      </trkpt>
      <trkpt lat="45.68606" lon="6.2094">
        <ele>1487.3</ele>
        <time>2014-01-31T13:32:01Z</time>
      </trkpt>
      <trkpt lat="45.68602" lon="6.20946">
        <ele>1488.6</ele>
        <time>2014-01-31T13:32:16Z</time>
      </trkpt>
      <trkpt lat="45.68602" lon="6.20947">
        <ele>1487.7</ele>
        <time>2014-01-31T13:32:31Z</time>
      </trkpt>
      <trkpt lat="45.68607" lon="6.20939">
        <ele>1487.9</ele>
        <time>2014-01-31T13:33:01Z</time>
      </trkpt>
      <trkpt lat="45.68609" lon="6.20936">
        <ele>1488.6</ele>
        <time>2014-01-31T13:33:16Z</time>
      </trkpt>
      <trkpt lat="45.68606" lon="6.2094">
        <ele>1487.6</ele>
        <time>2014-01-31T13:33:31Z</time>
      </trkpt>
      <trkpt lat="45.68605" lon="6.20943">
        <ele>1488.1</ele>
        <time>2014-01-31T13:33:46Z</time>
      </trkpt>
      <trkpt lat="45.68603" lon="6.20944">
        <ele>1487.2</ele>
        <time>2014-01-31T13:34:16Z</time>
      </trkpt>
      <trkpt lat="45.68602" lon="6.20943">
        <ele>1488.3</ele>
        <time>2014-01-31T13:34:31Z</time>
      </trkpt>
      <trkpt lat="45.68602" lon="6.20944">
        <ele>1489.5</ele>
        <time>2014-01-31T13:34:46Z</time>
      </trkpt>
      <trkpt lat="45.68601" lon="6.20945">
        <ele>1489.5</ele>
        <time>2014-01-31T13:35:01Z</time>
      </trkpt>
      <trkpt lat="45.68547" lon="6.20892">
        <ele>1478.3</ele>
        <time>2014-01-31T13:35:31Z</time>
      </trkpt>
      <trkpt lat="45.68544" lon="6.20891">
        <ele>1474.8</ele>
        <time>2014-01-31T13:35:46Z</time>
      </trkpt>
      <trkpt lat="45.68541" lon="6.20892">
        <ele>1474.5</ele>
        <time>2014-01-31T13:36:01Z</time>
      </trkpt>
      <trkpt lat="45.68507" lon="6.20892">
        <ele>1467.3</ele>
        <time>2014-01-31T13:36:16Z</time>
      </trkpt>
      <trkpt lat="45.68446" lon="6.20837">
        <ele>1445.1</ele>
        <time>2014-01-31T13:36:46Z</time>
      </trkpt>
      <trkpt lat="45.68438" lon="6.20821">
        <ele>1437.2</ele>
        <time>2014-01-31T13:37:01Z</time>
      </trkpt>
      <trkpt lat="45.68439" lon="6.20817">
        <ele>1436.3</ele>
        <time>2014-01-31T13:37:16Z</time>
      </trkpt>
      <trkpt lat="45.68433" lon="6.20811">
        <ele>1436.4</ele>
        <time>2014-01-31T13:37:31Z</time>
      </trkpt>
      <trkpt lat="45.68394" lon="6.20804">
        <ele>1425.4</ele>
        <time>2014-01-31T13:38:01Z</time>
      </trkpt>
      <trkpt lat="45.68374" lon="6.2078">
        <ele>1415.1</ele>
        <time>2014-01-31T13:38:16Z</time>
      </trkpt>
      <trkpt lat="45.68366" lon="6.20778">
        <ele>1414.1</ele>
        <time>2014-01-31T13:38:31Z</time>
      </trkpt>
      <trkpt lat="45.6836" lon="6.20781">
        <ele>1414.4</ele>
        <time>2014-01-31T13:38:46Z</time>
      </trkpt>
      <trkpt lat="45.6836" lon="6.20784">
        <ele>1413.8</ele>
        <time>2014-01-31T13:39:16Z</time>
      </trkpt>
      <trkpt lat="45.68358" lon="6.20786">
        <ele>1414.1</ele>
        <time>2014-01-31T13:39:31Z</time>
      </trkpt>
      <trkpt lat="45.68355" lon="6.20785">
        <ele>1413.8</ele>
        <time>2014-01-31T13:39:46Z</time>
      </trkpt>
      <trkpt lat="45.68356" lon="6.20789">
        <ele>1413.4</ele>
        <time>2014-01-31T13:40:01Z</time>
      </trkpt>
      <trkpt lat="45.68324" lon="6.20776">
        <ele>1409.8</ele>
        <time>2014-01-31T13:40:31Z</time>
      </trkpt>
      <trkpt lat="45.6829" lon="6.20753">
        <ele>1399.9</ele>
        <time>2014-01-31T13:40:46Z</time>
      </trkpt>
      <trkpt lat="45.68282" lon="6.20745">
        <ele>1396.9</ele>
        <time>2014-01-31T13:41:01Z</time>
      </trkpt>
      <trkpt lat="45.68277" lon="6.20751">
        <ele>1397.8</ele>
        <time>2014-01-31T13:41:16Z</time>
      </trkpt>
      <trkpt lat="45.68246" lon="6.20725">
        <ele>1385.5</ele>
        <time>2014-01-31T13:41:46Z</time>
      </trkpt>
      <trkpt lat="45.68213" lon="6.20696">
        <ele>1373.8</ele>
        <time>2014-01-31T13:42:01Z</time>
      </trkpt>
      <trkpt lat="45.68196" lon="6.20692">
        <ele>1364.5</ele>
        <time>2014-01-31T13:42:16Z</time>
      </trkpt>
      <trkpt lat="45.68176" lon="6.20688">
        <ele>1358.1</ele>
        <time>2014-01-31T13:42:31Z</time>
      </trkpt>
      <trkpt lat="45.68151" lon="6.20703">
        <ele>1350.5</ele>
        <time>2014-01-31T13:43:01Z</time>
      </trkpt>
      <trkpt lat="45.68152" lon="6.20704">
        <ele>1349.6</ele>
        <time>2014-01-31T13:43:16Z</time>
      </trkpt>
      <trkpt lat="45.68151" lon="6.20703">
        <ele>1350.9</ele>
        <time>2014-01-31T13:43:31Z</time>
      </trkpt>
      <trkpt lat="45.68153" lon="6.207">
        <ele>1351.5</ele>
        <time>2014-01-31T13:43:46Z</time>
      </trkpt>
      <trkpt lat="45.68154" lon="6.20706">
        <ele>1350.9</ele>
        <time>2014-01-31T13:44:16Z</time>
      </trkpt>
      <trkpt lat="45.68154" lon="6.2071">
        <ele>1351.4</ele>
        <time>2014-01-31T13:44:31Z</time>
      </trkpt>
      <trkpt lat="45.68156" lon="6.20708">
        <ele>1351.6</ele>
        <time>2014-01-31T13:44:46Z</time>
      </trkpt>
      <trkpt lat="45.68158" lon="6.20705">
        <ele>1351.5</ele>
        <time>2014-01-31T13:45:01Z</time>
      </trkpt>
      <trkpt lat="45.68169" lon="6.20698">
        <ele>1352.3</ele>
        <time>2014-01-31T13:45:31Z</time>
      </trkpt>
      <trkpt lat="45.68163" lon="6.20701">
        <ele>1351.8</ele>
        <time>2014-01-31T13:45:46Z</time>
      </trkpt>
      <trkpt lat="45.68164" lon="6.20699">
        <ele>1352</ele>
        <time>2014-01-31T13:46:01Z</time>
      </trkpt>
      <trkpt lat="45.68161" lon="6.20701">
        <ele>1352</ele>
        <time>2014-01-31T13:46:16Z</time>
      </trkpt>
      <trkpt lat="45.6816" lon="6.20699">
        <ele>1352.5</ele>
        <time>2014-01-31T13:46:46Z</time>
      </trkpt>
      <trkpt lat="45.68159" lon="6.20701">
        <ele>1351.1</ele>
        <time>2014-01-31T13:47:01Z</time>
      </trkpt>
      <trkpt lat="45.68159" lon="6.20702">
        <ele>1352.7</ele>
        <time>2014-01-31T13:47:16Z</time>
      </trkpt>
      <trkpt lat="45.68158" lon="6.20703">
        <ele>1352.4</ele>
        <time>2014-01-31T13:47:31Z</time>
      </trkpt>
      <trkpt lat="45.68154" lon="6.20705">
        <ele>1351.6</ele>
        <time>2014-01-31T13:48:01Z</time>
      </trkpt>
      <trkpt lat="45.68154" lon="6.20698">
        <ele>1352.9</ele>
        <time>2014-01-31T13:48:16Z</time>
      </trkpt>
      <trkpt lat="45.68174" lon="6.20664">
        <ele>1349</ele>
        <time>2014-01-31T13:48:31Z</time>
      </trkpt>
      <trkpt lat="45.68192" lon="6.2063">
        <ele>1348</ele>
        <time>2014-01-31T13:48:46Z</time>
      </trkpt>
      <trkpt lat="45.68255" lon="6.20515">
        <ele>1338.4</ele>
        <time>2014-01-31T13:49:16Z</time>
      </trkpt>
      <trkpt lat="45.68248" lon="6.20453">
        <ele>1334.6</ele>
        <time>2014-01-31T13:49:31Z</time>
      </trkpt>
      <trkpt lat="45.68264" lon="6.204">
        <ele>1328.2</ele>
        <time>2014-01-31T13:49:46Z</time>
      </trkpt>
      <trkpt lat="45.68219" lon="6.20372">
        <ele>1321.2</ele>
        <time>2014-01-31T13:50:01Z</time>
      </trkpt>
      <trkpt lat="45.68113" lon="6.20303">
        <ele>1302.8</ele>
        <time>2014-01-31T13:50:31Z</time>
      </trkpt>
      <trkpt lat="45.68059" lon="6.20232">
        <ele>1289.5</ele>
        <time>2014-01-31T13:50:46Z</time>
      </trkpt>
      <trkpt lat="45.67981" lon="6.2018">
        <ele>1277.8</ele>
        <time>2014-01-31T13:51:01Z</time>
      </trkpt>
      <trkpt lat="45.67914" lon="6.20095">
        <ele>1264.9</ele>
        <time>2014-01-31T13:51:16Z</time>
      </trkpt>
      <trkpt lat="45.67877" lon="6.20181">
        <ele>1244.6</ele>
        <time>2014-01-31T13:51:46Z</time>
      </trkpt>
      <trkpt lat="45.67849" lon="6.20163">
        <ele>1230.8</ele>
        <time>2014-01-31T13:52:01Z</time>
      </trkpt>
      <trkpt lat="45.67829" lon="6.20188">
        <ele>1224</ele>
        <time>2014-01-31T13:52:16Z</time>
      </trkpt>
      <trkpt lat="45.67765" lon="6.20112">
        <ele>1210.5</ele>
        <time>2014-01-31T13:52:31Z</time>
      </trkpt>
      <trkpt lat="45.67669" lon="6.19971">
        <ele>1180.8</ele>
        <time>2014-01-31T13:53:01Z</time>
      </trkpt>
      <trkpt lat="45.67657" lon="6.19964">
        <ele>1171.1</ele>
        <time>2014-01-31T13:53:16Z</time>
      </trkpt>
      <trkpt lat="45.67672" lon="6.20036">
        <ele>1157.5</ele>
        <time>2014-01-31T13:53:31Z</time>
      </trkpt>
      <trkpt lat="45.67617" lon="6.19989">
        <ele>1145.3</ele>
        <time>2014-01-31T13:53:46Z</time>
      </trkpt>
      <trkpt lat="45.67572" lon="6.20085">
        <ele>1120.6</ele>
        <time>2014-01-31T13:54:16Z</time>
      </trkpt>
      <trkpt lat="45.67555" lon="6.20079">
        <ele>1111</ele>
        <time>2014-01-31T13:54:31Z</time>
      </trkpt>
      <trkpt lat="45.67572" lon="6.20157">
        <ele>1106.1</ele>
        <time>2014-01-31T13:54:46Z</time>
      </trkpt>
      <trkpt lat="45.67524" lon="6.20101">
        <ele>1095</ele>
        <time>2014-01-31T13:55:01Z</time>
      </trkpt>
      <trkpt lat="45.67409" lon="6.19945">
        <ele>1072.9</ele>
        <time>2014-01-31T13:55:31Z</time>
      </trkpt>
      <trkpt lat="45.67362" lon="6.19902">
        <ele>1057.4</ele>
        <time>2014-01-31T13:55:46Z</time>
      </trkpt>
      <trkpt lat="45.67339" lon="6.20004">
        <ele>1044.5</ele>
        <time>2014-01-31T13:56:01Z</time>
      </trkpt>
      <trkpt lat="45.67308" lon="6.19949">
        <ele>1038.7</ele>
        <time>2014-01-31T13:56:16Z</time>
      </trkpt>
      <trkpt lat="45.67214" lon="6.19869">
        <ele>1034</ele>
        <time>2014-01-31T13:56:46Z</time>
      </trkpt>
      <trkpt lat="45.67114" lon="6.19773">
        <ele>1021.4</ele>
        <time>2014-01-31T13:57:01Z</time>
      </trkpt>
      <trkpt lat="45.67031" lon="6.19668">
        <ele>1007.3</ele>
        <time>2014-01-31T13:57:16Z</time>
      </trkpt>
      <trkpt lat="45.66931" lon="6.19573">
        <ele>993</ele>
        <time>2014-01-31T13:57:31Z</time>
      </trkpt>
      <trkpt lat="45.66762" lon="6.19439">
        <ele>974</ele>
        <time>2014-01-31T13:58:01Z</time>
      </trkpt>
      <trkpt lat="45.66718" lon="6.19391">
        <ele>975.3</ele>
        <time>2014-01-31T13:58:16Z</time>
      </trkpt>
      <trkpt lat="45.66681" lon="6.19354">
        <ele>975.7</ele>
        <time>2014-01-31T13:58:31Z</time>
      </trkpt>
      <trkpt lat="45.66638" lon="6.19311">
        <ele>972.4</ele>
        <time>2014-01-31T13:58:46Z</time>
      </trkpt>
      <trkpt lat="45.66537" lon="6.1919">
        <ele>968.6</ele>
        <time>2014-01-31T13:59:16Z</time>
      </trkpt>
      <trkpt lat="45.66507" lon="6.1916">
        <ele>968.5</ele>
        <time>2014-01-31T13:59:31Z</time>
      </trkpt>
      <trkpt lat="45.66501" lon="6.19151">
        <ele>967.7</ele>
        <time>2014-01-31T13:59:46Z</time>
      </trkpt>
      <trkpt lat="45.66499" lon="6.1915">
        <ele>969.4</ele>
        <time>2014-01-31T14:00:01Z</time>
      </trkpt>
      <trkpt lat="45.66494" lon="6.19151">
        <ele>968.4</ele>
        <time>2014-01-31T14:00:31Z</time>
      </trkpt>
      <trkpt lat="45.66488" lon="6.19164">
        <ele>968.4</ele>
        <time>2014-01-31T14:00:46Z</time>
      </trkpt>
      <trkpt lat="45.66488" lon="6.19163">
        <ele>967.9</ele>
        <time>2014-01-31T14:01:01Z</time>
      </trkpt>
      <trkpt lat="45.66489" lon="6.19162">
        <ele>967.6</ele>
        <time>2014-01-31T14:01:18Z</time>
      </trkpt>
      <trkpt lat="45.66484" lon="6.19165">
        <ele>968.3</ele>
        <time>2014-01-31T14:01:48Z</time>
      </trkpt>
      <trkpt lat="45.66484" lon="6.19165">
        <ele>968.3</ele>
        <time>2014-01-31T14:01:52Z</time>
      </trkpt>
    </trkseg>
  </trk>
</gpx>